Wetterdaten: Dienstag, 06.09.2022
Datum Zeit Temp. Aussen Temp. o. S. Temp +5cm Feuchte Auss Luftdruck Regen Sonnenschein Regendauer Solar Windben Empfang
06.09.2022 00:00 21,8 C 20,0 C 16,1 C 67 % 1016,0 hPa 0,0 l/m 0 min 0 min 0 W/m 0,0 km/h (0 Bft) 97,87 %
06.09.2022 00:02 21,8 C 20,0 C 16,1 C 67 % 1015,9 hPa 0,0 l/m 0 min 0 min 0 W/m 0,0 km/h (0 Bft) 97,62 %
06.09.2022 00:04 21,7 C 20,0 C 16,1 C 68 % 1015,9 hPa 0,0 l/m 0 min 0 min 0 W/m 0,0 km/h (0 Bft) 95,74 %
06.09.2022 00:08 21,7 C 20,0 C 16,1 C 68 % 1015,9 hPa 0,0 l/m 0 min 0 min 0 W/m 0,0 km/h (0 Bft) 96,81 %
06.09.2022 00:10 21,7 C 20,0 C 16,1 C 68 % 1015,9 hPa 0,0 l/m 0 min 0 min 0 W/m 0,0 km/h (0 Bft) 95,74 %
06.09.2022 00:12 21,6 C 20,0 C 16,1 C 68 % 1015,8 hPa 0,0 l/m 0 min 0 min 0 W/m 0,0 km/h (0 Bft) 100,00 %
06.09.2022 00:14 21,6 C 20,0 C 16,1 C 68 % 1015,8 hPa 0,0 l/m 0 min 0 min 0 W/m 0,0 km/h (0 Bft) 100,00 %
06.09.2022 00:16 21,6 C 20,0 C 16,1 C 68 % 1015,8 hPa 0,0 l/m 0 min 0 min 0 W/m 0,0 km/h (0 Bft) 100,00 %
06.09.2022 00:18 21,6 C 20,0 C 16,1 C 68 % 1015,7 hPa 0,0 l/m 0 min 0 min 0 W/m 0,0 km/h (0 Bft) 100,00 %
06.09.2022 00:20 21,6 C 20,0 C 16,1 C 69 % 1015,7 hPa 0,0 l/m 0 min 0 min 0 W/m 0,0 km/h (0 Bft) 97,87 %
06.09.2022 00:22 21,6 C 20,0 C 16,1 C 69 % 1015,7 hPa 0,0 l/m 0 min 0 min 0 W/m 0,0 km/h (0 Bft) 100,00 %
06.09.2022 00:24 21,6 C 20,0 C 16,1 C 70 % 1015,7 hPa 0,0 l/m 0 min 0 min 0 W/m 0,0 km/h (0 Bft) 97,87 %
06.09.2022 00:26 21,6 C 20,0 C 16,1 C 70 % 1015,7 hPa 0,0 l/m 0 min 0 min 0 W/m 0,0 km/h (0 Bft) 100,00 %
06.09.2022 00:28 21,5 C 20,0 C 16,1 C 70 % 1015,6 hPa 0,0 l/m 0 min 0 min 0 W/m 0,0 km/h (0 Bft) 97,83 %
06.09.2022 00:30 21,5 C 20,0 C 16,1 C 70 % 1015,7 hPa 0,0 l/m 0 min 0 min 0 W/m 0,0 km/h (0 Bft) 97,87 %
06.09.2022 00:32 21,4 C 20,0 C 16,1 C 70 % 1015,7 hPa 0,0 l/m 0 min 0 min 0 W/m 0,0 km/h (0 Bft) 97,87 %
06.09.2022 00:34 21,4 C 20,0 C 16,1 C 70 % 1015,7 hPa 0,0 l/m 0 min 0 min 0 W/m 0,0 km/h (0 Bft) 95,74 %
06.09.2022 00:36 21,4 C 20,0 C 16,1 C 71 % 1015,8 hPa 0,0 l/m 0 min 0 min 0 W/m 0,0 km/h (0 Bft) 97,87 %
06.09.2022 00:38 21,4 C 20,0 C 16,1 C 71 % 1015,7 hPa 0,0 l/m 0 min 0 min 0 W/m 0,0 km/h (0 Bft) 97,87 %
06.09.2022 00:40 21,4 C 20,0 C 16,1 C 71 % 1015,7 hPa 0,0 l/m 0 min 0 min 0 W/m 0,0 km/h (0 Bft) 97,83 %
06.09.2022 00:42 21,4 C 20,0 C 16,1 C 71 % 1015,8 hPa 0,0 l/m 0 min 0 min 0 W/m 0,0 km/h (0 Bft) 97,87 %
06.09.2022 00:44 21,3 C 20,0 C 16,1 C 72 % 1015,9 hPa 0,0 l/m 0 min 0 min 0 W/m 0,0 km/h (0 Bft) 97,87 %
06.09.2022 00:46 21,3 C 20,0 C 16,1 C 71 % 1015,9 hPa 0,0 l/m 0 min 0 min 0 W/m 0,0 km/h (0 Bft) 95,74 %
06.09.2022 00:48 21,3 C 20,0 C 16,1 C 72 % 1015,9 hPa 0,0 l/m 0 min 0 min 0 W/m 0,0 km/h (0 Bft) 97,87 %
06.09.2022 00:50 21,3 C 20,0 C 16,1 C 72 % 1015,9 hPa 0,0 l/m 0 min 0 min 0 W/m 0,0 km/h (0 Bft) 97,87 %
06.09.2022 00:52 21,3 C 20,0 C 16,1 C 72 % 1015,9 hPa 0,0 l/m 0 min 0 min 0 W/m 0,0 km/h (0 Bft) 97,83 %
06.09.2022 00:54 21,2 C 20,0 C 16,1 C 72 % 1015,8 hPa 0,0 l/m 0 min 0 min 0 W/m 0,0 km/h (0 Bft) 97,87 %
06.09.2022 00:56 21,2 C 20,0 C 16,1 C 72 % 1015,8 hPa 0,0 l/m 0 min 0 min 0 W/m 0,0 km/h (0 Bft) 97,87 %
06.09.2022 00:58 21,2 C 20,0 C 16,1 C 72 % 1015,9 hPa 0,0 l/m 0 min 0 min 0 W/m 0,0 km/h (0 Bft) 100,00 %
06.09.2022 01:00 21,2 C 20,0 C 16,1 C 73 % 1015,9 hPa 0,0 l/m 0 min 0 min 0 W/m 0,0 km/h (0 Bft) 100,00 %
06.09.2022 01:02 21,2 C 20,0 C 16,1 C 72 % 1015,9 hPa 0,0 l/m 0 min 0 min 0 W/m 0,0 km/h (0 Bft) 100,00 %
06.09.2022 01:04 21,1 C 20,0 C 16,1 C 72 % 1015,8 hPa 0,0 l/m 0 min 0 min 0 W/m 0,0 km/h (0 Bft) 100,00 %
06.09.2022 01:06 21,1 C 19,4 C 16,1 C 72 % 1015,8 hPa 0,0 l/m 0 min 0 min 0 W/m 0,0 km/h (0 Bft) 100,00 %
06.09.2022 01:08 21,1 C 19,4 C 16,1 C 73 % 1015,7 hPa 0,0 l/m 0 min 0 min 0 W/m 0,0 km/h (0 Bft) 100,00 %
06.09.2022 01:10 21,1 C 19,4 C 16,1 C 73 % 1015,7 hPa 0,0 l/m 0 min 0 min 0 W/m 0,0 km/h (0 Bft) 97,87 %
06.09.2022 01:12 21,1 C 19,4 C 16,1 C 73 % 1015,8 hPa 0,0 l/m 0 min 0 min 0 W/m 0,0 km/h (0 Bft) 100,00 %
06.09.2022 01:14 21,1 C 19,4 C 15,6 C 73 % 1015,7 hPa 0,0 l/m 0 min 0 min 0 W/m 0,0 km/h (0 Bft) 100,00 %
06.09.2022 01:16 21,1 C 19,4 C 15,6 C 73 % 1015,7 hPa 0,0 l/m 0 min 0 min 0 W/m 0,0 km/h (0 Bft) 100,00 %
06.09.2022 01:18 21,1 C 19,4 C 15,6 C 74 % 1015,8 hPa 0,0 l/m 0 min 0 min 0 W/m 6,4 km/h (2 Bft) 100,00 %
06.09.2022 01:20 21,0 C 19,4 C 16,1 C 72 % 1015,8 hPa 0,0 l/m 0 min 0 min 0 W/m 9,7 km/h (2 Bft) 100,00 %
06.09.2022 01:22 20,9 C 20,0 C 16,1 C 72 % 1015,8 hPa 0,0 l/m 0 min 0 min 0 W/m 3,2 km/h (1 Bft) 100,00 %
06.09.2022 01:24 20,9 C 20,0 C 16,1 C 71 % 1015,8 hPa 0,0 l/m 0 min 0 min 0 W/m 3,2 km/h (1 Bft) 100,00 %
06.09.2022 01:26 20,8 C 20,0 C 16,1 C 69 % 1015,8 hPa 0,0 l/m 0 min 0 min 0 W/m 16,1 km/h (3 Bft) 100,00 %
06.09.2022 01:28 20,8 C 20,0 C 16,7 C 68 % 1015,9 hPa 0,0 l/m 0 min 0 min 0 W/m 22,5 km/h (4 Bft) 100,00 %
06.09.2022 01:30 20,9 C 20,0 C 16,7 C 68 % 1015,9 hPa 0,0 l/m 0 min 0 min 0 W/m 19,3 km/h (3 Bft) 100,00 %
06.09.2022 01:32 20,9 C 20,6 C 16,7 C 68 % 1016,0 hPa 0,0 l/m 0 min 0 min 0 W/m 6,4 km/h (2 Bft) 100,00 %
06.09.2022 01:34 20,9 C 20,6 C 16,7 C 68 % 1015,9 hPa 0,0 l/m 0 min 0 min 0 W/m 3,2 km/h (1 Bft) 100,00 %
06.09.2022 01:36 20,9 C 20,6 C 16,7 C 67 % 1015,9 hPa 0,0 l/m 0 min 0 min 0 W/m 3,2 km/h (1 Bft) 97,87 %
06.09.2022 01:38 21,0 C 20,6 C 16,7 C 67 % 1015,9 hPa 0,0 l/m 0 min 0 min 0 W/m 6,4 km/h (2 Bft) 97,87 %
06.09.2022 01:40 21,0 C 20,6 C 16,7 C 67 % 1016,0 hPa 0,0 l/m 0 min 0 min 0 W/m 3,2 km/h (1 Bft) 97,83 %
06.09.2022 01:42 21,0 C 20,6 C 16,7 C 67 % 1016,0 hPa 0,0 l/m 0 min 0 min 0 W/m 0,0 km/h (0 Bft) 95,74 %
06.09.2022 01:44 21,1 C 20,6 C 16,7 C 68 % 1016,1 hPa 0,0 l/m 0 min 0 min 0 W/m 3,2 km/h (1 Bft) 97,87 %
06.09.2022 01:46 21,1 C 20,6 C 16,7 C 67 % 1016,1 hPa 0,0 l/m 0 min 0 min 0 W/m 9,7 km/h (2 Bft) 95,74 %
06.09.2022 01:48 21,1 C 20,6 C 16,7 C 67 % 1016,1 hPa 0,0 l/m 0 min 0 min 0 W/m 6,4 km/h (2 Bft) 97,87 %
06.09.2022 01:50 21,1 C 20,6 C 16,7 C 67 % 1016,1 hPa 0,0 l/m 0 min 0 min 0 W/m 6,4 km/h (2 Bft) 97,83 %
06.09.2022 01:52 21,1 C 20,6 C 16,7 C 67 % 1016,1 hPa 0,0 l/m 0 min 0 min 0 W/m 9,7 km/h (2 Bft) 97,87 %
06.09.2022 01:54 21,1 C 20,6 C 16,7 C 67 % 1016,1 hPa 0,0 l/m 0 min 0 min 0 W/m 6,4 km/h (2 Bft) 95,74 %
06.09.2022 01:56 21,2 C 20,6 C 16,7 C 67 % 1016,3 hPa 0,0 l/m 0 min 0 min 0 W/m 12,9 km/h (3 Bft) 97,87 %
06.09.2022 01:58 21,2 C 20,6 C 16,7 C 67 % 1016,3 hPa 0,0 l/m 0 min 0 min 0 W/m 9,7 km/h (2 Bft) 97,87 %
06.09.2022 02:00 21,2 C 20,6 C 16,7 C 67 % 1016,3 hPa 0,0 l/m 0 min 0 min 0 W/m 12,9 km/h (3 Bft) 95,74 %
06.09.2022 02:02 21,2 C 20,6 C 16,7 C 67 % 1016,3 hPa 0,0 l/m 0 min 0 min 0 W/m 6,4 km/h (2 Bft) 95,65 %
06.09.2022 02:04 21,2 C 20,6 C 16,7 C 67 % 1016,3 hPa 0,0 l/m 0 min 0 min 0 W/m 3,2 km/h (1 Bft) 97,87 %
06.09.2022 02:06 21,3 C 20,6 C 16,7 C 67 % 1016,3 hPa 0,0 l/m 0 min 0 min 0 W/m 9,7 km/h (2 Bft) 95,74 %
06.09.2022 02:08 21,2 C 20,6 C 16,7 C 67 % 1016,3 hPa 0,0 l/m 0 min 0 min 0 W/m 9,7 km/h (2 Bft) 97,87 %
06.09.2022 02:10 21,3 C 20,6 C 17,2 C 67 % 1016,3 hPa 0,0 l/m 0 min 0 min 0 W/m 6,4 km/h (2 Bft) 95,74 %
06.09.2022 02:12 21,3 C 20,6 C 17,2 C 67 % 1016,3 hPa 0,0 l/m 0 min 0 min 0 W/m 9,7 km/h (2 Bft) 95,74 %
06.09.2022 02:14 21,3 C 20,6 C 16,7 C 67 % 1016,3 hPa 0,0 l/m 0 min 0 min 0 W/m 9,7 km/h (2 Bft) 95,65 %
06.09.2022 02:16 21,3 C 20,6 C 16,7 C 67 % 1016,4 hPa 0,0 l/m 0 min 0 min 0 W/m 6,4 km/h (2 Bft) 91,49 %
06.09.2022 02:18 21,3 C 20,6 C 16,7 C 67 % 1016,6 hPa 0,0 l/m 0 min 0 min 0 W/m 9,7 km/h (2 Bft) 93,62 %
06.09.2022 02:20 21,3 C 20,6 C 16,7 C 67 % 1016,9 hPa 0,0 l/m 0 min 0 min 0 W/m 6,4 km/h (2 Bft) 93,62 %
06.09.2022 02:22 21,3 C 20,6 C 16,7 C 68 % 1017,1 hPa 0,0 l/m 0 min 0 min 0 W/m 3,2 km/h (1 Bft) 93,62 %
06.09.2022 02:24 21,3 C 20,6 C 17,2 C 68 % 1017,0 hPa 0,0 l/m 0 min 0 min 0 W/m 3,2 km/h (1 Bft) 95,74 %
06.09.2022 02:26 21,3 C 20,6 C 17,2 C 68 % 1017,1 hPa 0,0 l/m 0 min 0 min 0 W/m 19,3 km/h (3 Bft) 93,48 %
06.09.2022 02:28 21,3 C 20,6 C 17,2 C 68 % 1017,2 hPa 0,0 l/m 0 min 0 min 0 W/m 22,5 km/h (4 Bft) 95,74 %
06.09.2022 02:30 21,4 C 20,6 C 17,2 C 69 % 1017,3 hPa 0,0 l/m 0 min 0 min 0 W/m 19,3 km/h (3 Bft) 95,74 %
06.09.2022 02:32 21,4 C 20,6 C 17,2 C 69 % 1017,0 hPa 0,0 l/m 0 min 0 min 0 W/m 16,1 km/h (3 Bft) 95,74 %
06.09.2022 02:34 21,4 C 20,6 C 17,2 C 70 % 1016,9 hPa 0,0 l/m 0 min 2 min 0 W/m 22,5 km/h (4 Bft) 93,62 %
06.09.2022 02:36 21,4 C 20,6 C 16,7 C 71 % 1016,8 hPa 0,0 l/m 0 min 2 min 0 W/m 12,9 km/h (3 Bft) 95,74 %
06.09.2022 02:38 21,4 C 20,6 C 16,1 C 71 % 1016,8 hPa 0,0 l/m 0 min 2 min 0 W/m 6,4 km/h (2 Bft) 93,48 %
06.09.2022 02:40 21,4 C 20,6 C 16,1 C 72 % 1016,8 hPa 0,0 l/m 0 min 2 min 0 W/m 22,5 km/h (4 Bft) 95,74 %
06.09.2022 02:42 21,4 C 20,0 C 16,1 C 73 % 1016,8 hPa 0,0 l/m 0 min 2 min 0 W/m 6,4 km/h (2 Bft) 95,74 %
06.09.2022 02:44 21,3 C 20,0 C 15,6 C 73 % 1016,8 hPa 0,0 l/m 0 min 2 min 0 W/m 16,1 km/h (3 Bft) 95,74 %
06.09.2022 02:46 21,2 C 20,0 C 15,6 C 74 % 1016,8 hPa 0,0 l/m 0 min 2 min 0 W/m 9,7 km/h (2 Bft) 95,74 %
06.09.2022 02:48 21,2 C 19,4 C 15,0 C 75 % 1016,7 hPa 0,0 l/m 0 min 0 min 0 W/m 9,7 km/h (2 Bft) 93,62 %
06.09.2022 02:50 21,1 C 19,4 C 15,0 C 76 % 1016,6 hPa 0,0 l/m 0 min 0 min 0 W/m 16,1 km/h (3 Bft) 95,74 %
06.09.2022 02:52 21,1 C 19,4 C 15,0 C 76 % 1016,6 hPa 0,0 l/m 0 min 2 min 0 W/m 12,9 km/h (3 Bft) 97,83 %
06.09.2022 02:54 21,0 C 19,4 C 15,0 C 76 % 1016,6 hPa 0,0 l/m 0 min 2 min 0 W/m 9,7 km/h (2 Bft) 95,74 %
06.09.2022 02:56 20,9 C 19,4 C 15,0 C 77 % 1016,6 hPa 0,0 l/m 0 min 2 min 0 W/m 6,4 km/h (2 Bft) 97,87 %
06.09.2022 02:58 20,8 C 19,4 C 15,0 C 77 % 1016,7 hPa 0,0 l/m 0 min 2 min 0 W/m 9,7 km/h (2 Bft) 93,62 %
06.09.2022 03:00 20,8 C 18,9 C 15,0 C 78 % 1016,7 hPa 0,0 l/m 0 min 2 min 0 W/m 12,9 km/h (3 Bft) 97,87 %
06.09.2022 03:02 20,7 C 18,9 C 15,0 C 78 % 1016,8 hPa 0,0 l/m 0 min 0 min 0 W/m 9,7 km/h (2 Bft) 97,83 %
06.09.2022 03:04 20,6 C 18,9 C 15,6 C 78 % 1016,9 hPa 0,0 l/m 0 min 0 min 0 W/m 3,2 km/h (1 Bft) 100,00 %
06.09.2022 03:06 20,6 C 18,9 C 15,6 C 78 % 1017,0 hPa 0,0 l/m 0 min 0 min 0 W/m 6,4 km/h (2 Bft) 97,87 %
06.09.2022 03:08 20,5 C 18,9 C 15,6 C 79 % 1017,0 hPa 0,0 l/m 0 min 0 min 0 W/m 9,7 km/h (2 Bft) 100,00 %
06.09.2022 03:10 20,4 C 18,9 C 15,6 C 79 % 1017,1 hPa 0,0 l/m 0 min 0 min 0 W/m 6,4 km/h (2 Bft) 100,00 %
06.09.2022 03:12 20,4 C 18,9 C 15,6 C 80 % 1017,1 hPa 0,0 l/m 0 min 0 min 0 W/m 6,4 km/h (2 Bft) 100,00 %
06.09.2022 03:14 20,3 C 18,9 C 15,6 C 80 % 1017,1 hPa 0,0 l/m 0 min 0 min 0 W/m 3,2 km/h (1 Bft) 100,00 %
06.09.2022 03:16 20,3 C 18,9 C 15,6 C 81 % 1017,1 hPa 0,0 l/m 0 min 2 min 0 W/m 3,2 km/h (1 Bft) 100,00 %
06.09.2022 03:18 20,3 C 18,9 C 15,6 C 81 % 1017,1 hPa 0,0 l/m 0 min 0 min 0 W/m 0,0 km/h (0 Bft) 100,00 %
06.09.2022 03:20 20,3 C 18,9 C 15,6 C 82 % 1017,1 hPa 0,0 l/m 0 min 2 min 0 W/m 0,0 km/h (0 Bft) 100,00 %
06.09.2022 03:22 20,3 C 18,9 C 15,0 C 82 % 1017,1 hPa 0,0 l/m 0 min 0 min 0 W/m 0,0 km/h (0 Bft) 100,00 %
06.09.2022 03:24 20,3 C 18,9 C 15,0 C 82 % 1017,1 hPa 0,0 l/m 0 min 2 min 0 W/m 0,0 km/h (0 Bft) 100,00 %
06.09.2022 03:26 20,2 C 18,9 C 14,4 C 82 % 1017,1 hPa 0,2 l/m 0 min 2 min 0 W/m 3,2 km/h (1 Bft) 97,83 %
06.09.2022 03:28 20,2 C 18,9 C 13,9 C 83 % 1017,1 hPa 0,0 l/m 0 min 2 min 0 W/m 0,0 km/h (0 Bft) 100,00 %
06.09.2022 03:30 20,2 C 18,9 C 13,9 C 83 % 1017,1 hPa 0,0 l/m 0 min 2 min 0 W/m 0,0 km/h (0 Bft) 100,00 %
06.09.2022 03:32 20,2 C 18,9 C 13,9 C 83 % 1017,0 hPa 0,0 l/m 0 min 2 min 0 W/m 0,0 km/h (0 Bft) 100,00 %
06.09.2022 03:34 20,2 C 18,3 C 13,9 C 84 % 1017,0 hPa 0,0 l/m 0 min 2 min 0 W/m 0,0 km/h (0 Bft) 100,00 %
06.09.2022 03:36 20,2 C 18,3 C 13,9 C 84 % 1016,9 hPa 0,0 l/m 0 min 2 min 0 W/m 0,0 km/h (0 Bft) 100,00 %
06.09.2022 03:38 20,2 C 18,3 C 13,3 C 85 % 1016,9 hPa 0,0 l/m 0 min 2 min 0 W/m 0,0 km/h (0 Bft) 100,00 %
06.09.2022 03:40 20,1 C 18,3 C 13,9 C 85 % 1016,8 hPa 0,2 l/m 0 min 0 min 0 W/m 3,2 km/h (1 Bft) 100,00 %
06.09.2022 03:42 20,1 C 18,3 C 13,9 C 85 % 1016,8 hPa 0,0 l/m 0 min 0 min 0 W/m 0,0 km/h (0 Bft) 100,00 %
06.09.2022 03:44 20,1 C 18,3 C 13,3 C 85 % 1016,8 hPa 0,0 l/m 0 min 0 min 0 W/m 3,2 km/h (1 Bft) 100,00 %
06.09.2022 03:46 20,0 C 18,3 C 13,3 C 85 % 1016,8 hPa 0,0 l/m 0 min 0 min 0 W/m 6,4 km/h (2 Bft) 100,00 %
06.09.2022 03:48 19,9 C 18,3 C 13,3 C 85 % 1016,8 hPa 0,0 l/m 0 min 0 min 0 W/m 3,2 km/h (1 Bft) 100,00 %
06.09.2022 03:50 19,8 C 18,3 C 13,3 C 85 % 1016,8 hPa 0,0 l/m 0 min 0 min 0 W/m 3,2 km/h (1 Bft) 100,00 %
06.09.2022 03:52 19,7 C 18,3 C 13,3 C 86 % 1016,7 hPa 0,0 l/m 0 min 0 min 0 W/m 3,2 km/h (1 Bft) 100,00 %
06.09.2022 03:54 19,7 C 18,3 C 13,3 C 86 % 1016,7 hPa 0,0 l/m 0 min 0 min 0 W/m 3,2 km/h (1 Bft) 100,00 %
06.09.2022 03:56 19,6 C 18,3 C 13,3 C 86 % 1016,7 hPa 0,0 l/m 0 min 0 min 0 W/m 3,2 km/h (1 Bft) 100,00 %
06.09.2022 03:58 19,6 C 18,3 C 13,9 C 86 % 1016,7 hPa 0,0 l/m 0 min 0 min 0 W/m 3,2 km/h (1 Bft) 100,00 %
06.09.2022 04:00 19,5 C 18,3 C 13,9 C 86 % 1016,7 hPa 0,0 l/m 0 min 0 min 0 W/m 3,2 km/h (1 Bft) 97,87 %
06.09.2022 04:02 19,4 C 18,3 C 13,9 C 87 % 1016,6 hPa 0,0 l/m 0 min 0 min 0 W/m 3,2 km/h (1 Bft) 100,00 %
06.09.2022 04:04 19,4 C 18,3 C 13,9 C 87 % 1016,6 hPa 0,0 l/m 0 min 0 min 0 W/m 3,2 km/h (1 Bft) 100,00 %
06.09.2022 04:06 19,4 C 18,3 C 13,9 C 87 % 1016,5 hPa 0,0 l/m 0 min 0 min 0 W/m 3,2 km/h (1 Bft) 97,87 %
06.09.2022 04:08 19,3 C 18,3 C 13,9 C 86 % 1016,5 hPa 0,0 l/m 0 min 0 min 0 W/m 3,2 km/h (1 Bft) 100,00 %
06.09.2022 04:10 19,3 C 18,3 C 13,9 C 87 % 1016,5 hPa 0,0 l/m 0 min 0 min 0 W/m 9,7 km/h (2 Bft) 97,87 %
06.09.2022 04:12 19,3 C 18,3 C 13,3 C 87 % 1016,4 hPa 0,0 l/m 0 min 0 min 0 W/m 3,2 km/h (1 Bft) 95,74 %
06.09.2022 04:14 19,3 C 18,3 C 13,3 C 87 % 1016,5 hPa 0,0 l/m 0 min 0 min 0 W/m 3,2 km/h (1 Bft) 97,83 %
06.09.2022 04:16 19,3 C 17,8 C 13,3 C 87 % 1016,5 hPa 0,0 l/m 0 min 0 min 0 W/m 3,2 km/h (1 Bft) 95,74 %
06.09.2022 04:18 19,3 C 18,3 C 13,9 C 87 % 1016,5 hPa 0,0 l/m 0 min 0 min 0 W/m 3,2 km/h (1 Bft) 97,87 %
06.09.2022 04:20 19,2 C 18,3 C 13,9 C 87 % 1016,4 hPa 0,0 l/m 0 min 0 min 0 W/m 0,0 km/h (0 Bft) 100,00 %
06.09.2022 04:22 19,2 C 18,3 C 13,9 C 87 % 1016,4 hPa 0,0 l/m 0 min 0 min 0 W/m 0,0 km/h (0 Bft) 97,87 %
06.09.2022 04:24 19,2 C 17,8 C 13,9 C 87 % 1016,4 hPa 0,0 l/m 0 min 0 min 0 W/m 0,0 km/h (0 Bft) 97,87 %
06.09.2022 04:26 19,2 C 17,8 C 13,9 C 87 % 1016,3 hPa 0,0 l/m 0 min 2 min 0 W/m 0,0 km/h (0 Bft) 97,83 %
06.09.2022 04:28 19,2 C 17,8 C 13,9 C 88 % 1016,3 hPa 0,0 l/m 0 min 2 min 0 W/m 0,0 km/h (0 Bft) 97,87 %
06.09.2022 04:30 19,2 C 17,8 C 13,9 C 88 % 1016,3 hPa 0,0 l/m 0 min 2 min 0 W/m 0,0 km/h (0 Bft) 95,74 %
06.09.2022 04:32 19,2 C 17,8 C 13,9 C 88 % 1016,2 hPa 0,0 l/m 0 min 2 min 0 W/m 3,2 km/h (1 Bft) 93,62 %
06.09.2022 04:34 19,2 C 17,8 C 13,9 C 88 % 1016,2 hPa 0,0 l/m 0 min 0 min 0 W/m 3,2 km/h (1 Bft) 95,74 %
06.09.2022 04:36 19,1 C 17,8 C 13,9 C 88 % 1016,2 hPa 0,0 l/m 0 min 0 min 0 W/m 3,2 km/h (1 Bft) 93,62 %
06.09.2022 04:38 19,1 C 17,8 C 13,9 C 88 % 1016,1 hPa 0,0 l/m 0 min 0 min 0 W/m 0,0 km/h (0 Bft) 95,65 %
06.09.2022 04:40 19,1 C 17,8 C 13,9 C 88 % 1016,2 hPa 0,0 l/m 0 min 0 min 0 W/m 0,0 km/h (0 Bft) 95,74 %
06.09.2022 04:42 19,1 C 17,8 C 13,9 C 88 % 1016,2 hPa 0,0 l/m 0 min 0 min 0 W/m 0,0 km/h (0 Bft) 97,87 %
06.09.2022 04:44 19,0 C 17,8 C 14,4 C 88 % 1016,2 hPa 0,0 l/m 0 min 0 min 0 W/m 0,0 km/h (0 Bft) 95,74 %
06.09.2022 04:46 18,9 C 17,8 C 14,4 C 88 % 1016,2 hPa 0,0 l/m 0 min 0 min 0 W/m 0,0 km/h (0 Bft) 93,62 %
06.09.2022 04:48 18,9 C 17,8 C 14,4 C 88 % 1016,1 hPa 0,0 l/m 0 min 0 min 0 W/m 3,2 km/h (1 Bft) 97,87 %
06.09.2022 04:50 18,9 C 17,8 C 14,4 C 88 % 1016,0 hPa 0,0 l/m 0 min 0 min 0 W/m 3,2 km/h (1 Bft) 97,83 %
06.09.2022 04:52 18,9 C 17,8 C 14,4 C 88 % 1016,0 hPa 0,0 l/m 0 min 0 min 0 W/m 3,2 km/h (1 Bft) 97,87 %
06.09.2022 04:54 18,9 C 17,8 C 14,4 C 88 % 1016,0 hPa 0,0 l/m 0 min 0 min 0 W/m 6,4 km/h (2 Bft) 95,74 %
06.09.2022 04:56 18,8 C 17,8 C 14,4 C 89 % 1016,0 hPa 0,0 l/m 0 min 0 min 0 W/m 6,4 km/h (2 Bft) 95,74 %
06.09.2022 04:58 18,8 C 17,8 C 14,4 C 89 % 1016,0 hPa 0,0 l/m 0 min 0 min 0 W/m 6,4 km/h (2 Bft) 95,74 %
06.09.2022 05:00 18,8 C 17,8 C 14,4 C 89 % 1016,0 hPa 0,0 l/m 0 min 0 min 0 W/m 3,2 km/h (1 Bft) 95,74 %
06.09.2022 05:02 18,8 C 17,8 C 14,4 C 89 % 1016,1 hPa 0,0 l/m 0 min 0 min 0 W/m 3,2 km/h (1 Bft) 93,48 %
06.09.2022 05:04 18,8 C 17,8 C 14,4 C 90 % 1016,0 hPa 0,0 l/m 0 min 0 min 0 W/m 0,0 km/h (0 Bft) 95,74 %
06.09.2022 05:06 18,8 C 17,8 C 14,4 C 90 % 1015,9 hPa 0,0 l/m 0 min 0 min 0 W/m 3,2 km/h (1 Bft) 95,74 %
06.09.2022 05:08 18,8 C 17,8 C 14,4 C 90 % 1015,9 hPa 0,0 l/m 0 min 0 min 0 W/m 0,0 km/h (0 Bft) 93,62 %
06.09.2022 05:10 18,8 C 17,8 C 14,4 C 90 % 1015,8 hPa 0,0 l/m 0 min 0 min 0 W/m 0,0 km/h (0 Bft) 91,49 %
06.09.2022 05:12 18,8 C 17,8 C 14,4 C 90 % 1015,7 hPa 0,0 l/m 0 min 0 min 0 W/m 0,0 km/h (0 Bft) 93,62 %
06.09.2022 05:14 18,8 C 17,8 C 14,4 C 90 % 1015,6 hPa 0,0 l/m 0 min 0 min 0 W/m 0,0 km/h (0 Bft) 95,65 %
06.09.2022 05:16 18,8 C 17,8 C 14,4 C 90 % 1015,6 hPa 0,0 l/m 0 min 0 min 0 W/m 3,2 km/h (1 Bft) 95,74 %
06.09.2022 05:18 18,8 C 17,8 C 14,4 C 90 % 1015,7 hPa 0,0 l/m 0 min 0 min 0 W/m 3,2 km/h (1 Bft) 97,87 %
06.09.2022 05:20 18,8 C 17,8 C 14,4 C 90 % 1015,7 hPa 0,0 l/m 0 min 0 min 0 W/m 0,0 km/h (0 Bft) 93,62 %
06.09.2022 05:22 18,8 C 17,8 C 14,4 C 90 % 1015,8 hPa 0,0 l/m 0 min 0 min 0 W/m 0,0 km/h (0 Bft) 97,87 %
06.09.2022 05:24 18,8 C 17,8 C 14,4 C 90 % 1015,8 hPa 0,0 l/m 0 min 0 min 0 W/m 0,0 km/h (0 Bft) 97,87 %
06.09.2022 05:26 18,8 C 17,8 C 14,4 C 90 % 1015,9 hPa 0,0 l/m 0 min 0 min 0 W/m 3,2 km/h (1 Bft) 97,83 %
06.09.2022 05:28 18,8 C 17,8 C 14,4 C 90 % 1015,8 hPa 0,0 l/m 0 min 0 min 0 W/m 3,2 km/h (1 Bft) 97,87 %
06.09.2022 05:30 18,7 C 17,8 C 14,4 C 90 % 1015,8 hPa 0,0 l/m 0 min 0 min 0 W/m 3,2 km/h (1 Bft) 97,87 %
06.09.2022 05:32 18,7 C 17,8 C 14,4 C 90 % 1015,7 hPa 0,0 l/m 0 min 0 min 0 W/m 0,0 km/h (0 Bft) 97,87 %
06.09.2022 05:34 18,7 C 17,8 C 14,4 C 90 % 1015,8 hPa 0,0 l/m 0 min 0 min 0 W/m 0,0 km/h (0 Bft) 97,87 %
06.09.2022 05:36 18,7 C 17,8 C 14,4 C 91 % 1015,8 hPa 0,0 l/m 0 min 0 min 0 W/m 0,0 km/h (0 Bft) 97,83 %
06.09.2022 05:38 18,7 C 17,8 C 14,4 C 91 % 1015,8 hPa 0,0 l/m 0 min 0 min 0 W/m 0,0 km/h (0 Bft) 95,74 %
06.09.2022 05:40 18,7 C 17,8 C 14,4 C 91 % 1015,8 hPa 0,0 l/m 0 min 0 min 0 W/m 0,0 km/h (0 Bft) 97,87 %
06.09.2022 05:42 18,7 C 17,8 C 14,4 C 91 % 1015,9 hPa 0,0 l/m 0 min 0 min 0 W/m 0,0 km/h (0 Bft) 97,87 %
06.09.2022 05:44 18,7 C 17,8 C 14,4 C 91 % 1015,8 hPa 0,0 l/m 0 min 0 min 0 W/m 0,0 km/h (0 Bft) 97,87 %
06.09.2022 05:46 18,7 C 17,8 C 14,4 C 91 % 1015,8 hPa 0,0 l/m 0 min 0 min 0 W/m 0,0 km/h (0 Bft) 95,74 %
06.09.2022 05:48 18,7 C 17,8 C 14,4 C 91 % 1015,8 hPa 0,0 l/m 0 min 0 min 0 W/m 0,0 km/h (0 Bft) 97,87 %
06.09.2022 05:50 18,7 C 17,8 C 14,4 C 91 % 1015,7 hPa 0,0 l/m 0 min 0 min 0 W/m 0,0 km/h (0 Bft) 97,83 %
06.09.2022 05:52 18,7 C 17,8 C 14,4 C 91 % 1015,6 hPa 0,0 l/m 0 min 0 min 0 W/m 3,2 km/h (1 Bft) 97,87 %
06.09.2022 05:54 18,7 C 17,8 C 14,4 C 91 % 1015,7 hPa 0,0 l/m 0 min 0 min 0 W/m 3,2 km/h (1 Bft) 100,00 %
06.09.2022 05:56 18,7 C 17,8 C 14,4 C 91 % 1015,8 hPa 0,0 l/m 0 min 0 min 0 W/m 3,2 km/h (1 Bft) 97,87 %
06.09.2022 05:58 18,6 C 17,8 C 14,4 C 91 % 1015,8 hPa 0,0 l/m 0 min 0 min 0 W/m 0,0 km/h (0 Bft) 97,87 %
06.09.2022 06:00 18,6 C 17,8 C 14,4 C 91 % 1015,8 hPa 0,0 l/m 0 min 0 min 0 W/m 0,0 km/h (0 Bft) 97,87 %
06.09.2022 06:02 18,6 C 17,8 C 14,4 C 91 % 1015,9 hPa 0,0 l/m 0 min 0 min 0 W/m 3,2 km/h (1 Bft) 97,83 %
06.09.2022 06:04 18,6 C 17,8 C 14,4 C 91 % 1015,9 hPa 0,0 l/m 0 min 0 min 0 W/m 0,0 km/h (0 Bft) 97,87 %
06.09.2022 06:07 18,6 C 17,2 C 14,4 C 91 % 1015,8 hPa 0,0 l/m 0 min 0 min 0 W/m 3,2 km/h (1 Bft) 97,87 %
06.09.2022 06:08 18,6 C 17,2 C 14,4 C 91 % 1015,8 hPa 0,0 l/m 0 min 0 min 0 W/m 3,2 km/h (1 Bft) 95,12 %
06.09.2022 06:10 18,5 C 17,2 C 14,4 C 91 % 1015,8 hPa 0,0 l/m 0 min 0 min 0 W/m 3,2 km/h (1 Bft) 70,21 %
06.09.2022 06:12 18,5 C 17,2 C 13,9 C 91 % 1015,8 hPa 0,0 l/m 0 min 0 min 0 W/m 6,4 km/h (2 Bft) 81,40 %
06.09.2022 06:14 18,4 C 17,2 C 13,9 C 91 % 1015,9 hPa 0,0 l/m 0 min 0 min 0 W/m 6,4 km/h (2 Bft) 97,87 %
06.09.2022 06:16 18,4 C 17,2 C 13,9 C 91 % 1015,9 hPa 0,0 l/m 0 min 0 min 0 W/m 3,2 km/h (1 Bft) 97,83 %
06.09.2022 06:18 18,4 C 17,2 C 13,9 C 91 % 1015,8 hPa 0,0 l/m 0 min 0 min 0 W/m 6,4 km/h (2 Bft) 97,87 %
06.09.2022 06:20 18,3 C 17,2 C 13,9 C 91 % 1015,8 hPa 0,0 l/m 0 min 0 min 0 W/m 3,2 km/h (1 Bft) 97,87 %
06.09.2022 06:22 18,3 C 17,2 C 13,9 C 91 % 1015,8 hPa 0,0 l/m 0 min 0 min 0 W/m 12,9 km/h (3 Bft) 97,87 %
06.09.2022 06:24 18,3 C 17,2 C 13,9 C 91 % 1015,9 hPa 0,0 l/m 0 min 0 min 0 W/m 6,4 km/h (2 Bft) 97,87 %
06.09.2022 06:26 18,2 C 17,2 C 13,9 C 91 % 1015,8 hPa 0,0 l/m 0 min 0 min 0 W/m 6,4 km/h (2 Bft) 97,87 %
06.09.2022 06:28 18,2 C 17,2 C 13,9 C 91 % 1015,8 hPa 0,0 l/m 0 min 0 min 0 W/m 6,4 km/h (2 Bft) 100,00 %
06.09.2022 06:30 18,2 C 17,2 C 13,9 C 91 % 1015,8 hPa 0,0 l/m 0 min 0 min 0 W/m 6,4 km/h (2 Bft) 100,00 %
06.09.2022 06:32 18,2 C 17,2 C 13,9 C 91 % 1015,7 hPa 0,0 l/m 0 min 0 min 0 W/m 6,4 km/h (2 Bft) 100,00 %
06.09.2022 06:34 18,2 C 17,2 C 13,9 C 91 % 1015,8 hPa 0,0 l/m 0 min 0 min 0 W/m 3,2 km/h (1 Bft) 100,00 %
06.09.2022 06:36 18,1 C 17,2 C 13,9 C 92 % 1015,8 hPa 0,0 l/m 0 min 0 min 0 W/m 3,2 km/h (1 Bft) 100,00 %
06.09.2022 06:38 18,1 C 17,2 C 13,9 C 92 % 1015,8 hPa 0,0 l/m 0 min 0 min 0 W/m 3,2 km/h (1 Bft) 100,00 %
06.09.2022 06:40 18,1 C 16,7 C 13,9 C 91 % 1015,8 hPa 0,0 l/m 0 min 0 min 0 W/m 6,4 km/h (2 Bft) 100,00 %
06.09.2022 06:42 18,1 C 16,7 C 13,9 C 91 % 1015,8 hPa 0,0 l/m 0 min 0 min 0 W/m 3,2 km/h (1 Bft) 100,00 %
06.09.2022 06:44 18,1 C 16,7 C 13,9 C 91 % 1015,8 hPa 0,0 l/m 0 min 0 min 0 W/m 6,4 km/h (2 Bft) 100,00 %
06.09.2022 06:46 18,0 C 16,7 C 13,9 C 91 % 1015,8 hPa 0,0 l/m 0 min 0 min 0 W/m 6,4 km/h (2 Bft) 100,00 %
06.09.2022 06:48 18,0 C 16,7 C 13,9 C 91 % 1015,8 hPa 0,0 l/m 0 min 0 min 0 W/m 3,2 km/h (1 Bft) 100,00 %
06.09.2022 06:50 17,9 C 16,7 C 13,9 C 91 % 1015,8 hPa 0,0 l/m 0 min 0 min 0 W/m 3,2 km/h (1 Bft) 100,00 %
06.09.2022 06:52 17,9 C 16,7 C 13,9 C 91 % 1015,9 hPa 0,0 l/m 0 min 0 min 0 W/m 3,2 km/h (1 Bft) 100,00 %
06.09.2022 06:54 17,9 C 16,7 C 13,9 C 91 % 1015,9 hPa 0,0 l/m 0 min 0 min 0 W/m 0,0 km/h (0 Bft) 100,00 %
06.09.2022 06:56 17,9 C 16,7 C 13,9 C 91 % 1015,9 hPa 0,0 l/m 0 min 0 min 0 W/m 0,0 km/h (0 Bft) 97,87 %
06.09.2022 06:58 17,8 C 16,7 C 13,9 C 91 % 1015,9 hPa 0,0 l/m 0 min 0 min 0 W/m 3,2 km/h (1 Bft) 100,00 %
06.09.2022 07:00 17,8 C 16,7 C 13,9 C 91 % 1016,0 hPa 0,0 l/m 0 min 0 min 0 W/m 0,0 km/h (0 Bft) 97,87 %
06.09.2022 07:02 17,8 C 16,7 C 13,3 C 92 % 1015,9 hPa 0,0 l/m 0 min 0 min 0 W/m 3,2 km/h (1 Bft) 100,00 %
06.09.2022 07:04 17,8 C 16,7 C 13,3 C 92 % 1016,1 hPa 0,0 l/m 0 min 0 min 1 W/m 3,2 km/h (1 Bft) 100,00 %
06.09.2022 07:06 17,8 C 16,7 C 13,3 C 92 % 1016,1 hPa 0,0 l/m 0 min 0 min 5 W/m 3,2 km/h (1 Bft) 100,00 %
06.09.2022 07:08 17,8 C 16,7 C 13,3 C 92 % 1016,1 hPa 0,0 l/m 0 min 0 min 5 W/m 3,2 km/h (1 Bft) 100,00 %
06.09.2022 07:10 17,7 C 16,7 C 13,3 C 92 % 1016,1 hPa 0,0 l/m 0 min 0 min 5 W/m 3,2 km/h (1 Bft) 100,00 %
06.09.2022 07:12 17,7 C 16,7 C 13,3 C 92 % 1016,1 hPa 0,0 l/m 0 min 0 min 7 W/m 0,0 km/h (0 Bft) 97,87 %
06.09.2022 07:14 17,7 C 16,7 C 13,3 C 92 % 1016,1 hPa 0,0 l/m 0 min 0 min 7 W/m 3,2 km/h (1 Bft) 100,00 %
06.09.2022 07:16 17,7 C 16,7 C 13,3 C 92 % 1016,1 hPa 0,0 l/m 0 min 0 min 8 W/m 0,0 km/h (0 Bft) 97,83 %
06.09.2022 07:18 17,7 C 16,7 C 13,3 C 92 % 1016,2 hPa 0,0 l/m 0 min 0 min 9 W/m 3,2 km/h (1 Bft) 100,00 %
06.09.2022 07:20 17,7 C 16,7 C 13,3 C 92 % 1016,1 hPa 0,0 l/m 0 min 0 min 9 W/m 0,0 km/h (0 Bft) 97,87 %
06.09.2022 07:22 17,7 C 16,7 C 13,3 C 92 % 1016,2 hPa 0,0 l/m 0 min 0 min 11 W/m 3,2 km/h (1 Bft) 97,87 %
06.09.2022 07:24 17,6 C 16,7 C 13,3 C 92 % 1016,2 hPa 0,0 l/m 0 min 0 min 11 W/m 6,4 km/h (2 Bft) 100,00 %
06.09.2022 07:26 17,6 C 16,7 C 13,3 C 92 % 1016,2 hPa 0,0 l/m 0 min 0 min 12 W/m 3,2 km/h (1 Bft) 95,74 %
06.09.2022 07:28 17,6 C 16,7 C 13,3 C 92 % 1016,1 hPa 0,0 l/m 0 min 0 min 13 W/m 3,2 km/h (1 Bft) 97,83 %
06.09.2022 07:30 17,6 C 16,7 C 13,3 C 92 % 1016,1 hPa 0,0 l/m 0 min 0 min 14 W/m 3,2 km/h (1 Bft) 97,87 %
06.09.2022 07:32 17,5 C 16,7 C 13,3 C 92 % 1016,1 hPa 0,0 l/m 0 min 0 min 14 W/m 3,2 km/h (1 Bft) 93,62 %
06.09.2022 07:34 17,5 C 16,7 C 13,3 C 92 % 1016,1 hPa 0,0 l/m 0 min 0 min 15 W/m 3,2 km/h (1 Bft) 97,87 %
06.09.2022 07:36 17,5 C 16,7 C 13,3 C 92 % 1016,1 hPa 0,0 l/m 0 min 0 min 16 W/m 3,2 km/h (1 Bft) 96,55 %
06.09.2022 07:38 17,5 C 16,7 C 13,3 C 92 % 1016,1 hPa 0,0 l/m 0 min 0 min 16 W/m 3,2 km/h (1 Bft) 97,22 %
06.09.2022 07:40 17,4 C 16,7 C 13,3 C 92 % 1016,1 hPa 0,0 l/m 0 min 0 min 17 W/m 6,4 km/h (2 Bft) 95,65 %
06.09.2022 07:42 17,4 C 16,7 C 13,3 C 92 % 1016,1 hPa 0,0 l/m 0 min 0 min 18 W/m 3,2 km/h (1 Bft) 91,49 %
06.09.2022 07:44 17,4 C 16,7 C 13,3 C 92 % 1016,1 hPa 0,0 l/m 0 min 0 min 18 W/m 6,4 km/h (2 Bft) 93,62 %
06.09.2022 07:46 17,4 C 16,7 C 13,3 C 92 % 1016,2 hPa 0,0 l/m 0 min 0 min 19 W/m 3,2 km/h (1 Bft) 93,62 %
06.09.2022 07:48 17,4 C 16,7 C 13,3 C 92 % 1016,2 hPa 0,0 l/m 0 min 0 min 19 W/m 3,2 km/h (1 Bft) 93,62 %
06.09.2022 07:50 17,4 C 16,7 C 13,3 C 93 % 1016,1 hPa 0,0 l/m 0 min 0 min 19 W/m 3,2 km/h (1 Bft) 93,62 %
06.09.2022 07:52 17,4 C 16,7 C 13,3 C 93 % 1016,2 hPa 0,0 l/m 0 min 0 min 19 W/m 0,0 km/h (0 Bft) 91,30 %
06.09.2022 07:54 17,4 C 16,7 C 13,3 C 93 % 1016,1 hPa 0,0 l/m 0 min 0 min 21 W/m 3,2 km/h (1 Bft) 93,62 %
06.09.2022 07:56 17,4 C 16,7 C 13,3 C 93 % 1016,1 hPa 0,0 l/m 0 min 0 min 21 W/m 3,2 km/h (1 Bft) 93,62 %
06.09.2022 07:58 17,4 C 16,7 C 13,3 C 93 % 1016,1 hPa 0,0 l/m 0 min 0 min 21 W/m 3,2 km/h (1 Bft) 93,62 %
06.09.2022 08:00 17,4 C 16,7 C 13,3 C 93 % 1016,1 hPa 0,0 l/m 0 min 0 min 21 W/m 3,2 km/h (1 Bft) 91,49 %
06.09.2022 08:02 17,4 C 16,7 C 13,3 C 93 % 1016,1 hPa 0,0 l/m 0 min 0 min 23 W/m 3,2 km/h (1 Bft) 93,62 %
06.09.2022 08:04 17,4 C 16,7 C 13,3 C 93 % 1016,1 hPa 0,0 l/m 0 min 0 min 23 W/m 3,2 km/h (1 Bft) 95,65 %
06.09.2022 08:06 17,4 C 16,7 C 13,3 C 93 % 1016,1 hPa 0,0 l/m 0 min 0 min 23 W/m 6,4 km/h (2 Bft) 86,44 %
06.09.2022 08:08 17,4 C 16,7 C 13,9 C 93 % 1016,2 hPa 0,0 l/m 0 min 0 min 23 W/m 6,4 km/h (2 Bft) 100,00 %
06.09.2022 08:10 17,4 C 16,7 C 13,9 C 93 % 1016,1 hPa 0,0 l/m 0 min 0 min 25 W/m 3,2 km/h (1 Bft) 91,49 %
06.09.2022 08:12 17,4 C 16,7 C 13,9 C 93 % 1016,1 hPa 0,0 l/m 0 min 0 min 25 W/m 3,2 km/h (1 Bft) 95,74 %
06.09.2022 08:14 17,5 C 17,2 C 13,9 C 93 % 1016,1 hPa 0,0 l/m 0 min 0 min 25 W/m 6,4 km/h (2 Bft) 93,62 %
06.09.2022 08:16 17,5 C 17,2 C 13,9 C 93 % 1016,2 hPa 0,0 l/m 0 min 0 min 25 W/m 3,2 km/h (1 Bft) 97,83 %
06.09.2022 08:18 17,6 C 17,2 C 13,9 C 93 % 1016,1 hPa 0,0 l/m 0 min 0 min 26 W/m 6,4 km/h (2 Bft) 97,87 %
06.09.2022 08:20 17,6 C 17,2 C 13,9 C 94 % 1016,1 hPa 0,0 l/m 0 min 0 min 26 W/m 3,2 km/h (1 Bft) 97,87 %
06.09.2022 08:22 17,6 C 17,2 C 13,9 C 94 % 1016,1 hPa 0,0 l/m 0 min 0 min 26 W/m 6,4 km/h (2 Bft) 97,87 %
06.09.2022 08:24 17,7 C 17,2 C 13,9 C 94 % 1016,2 hPa 0,0 l/m 0 min 0 min 26 W/m 3,2 km/h (1 Bft) 97,87 %
06.09.2022 08:26 17,7 C 17,2 C 13,9 C 94 % 1016,1 hPa 0,0 l/m 0 min 0 min 26 W/m 6,4 km/h (2 Bft) 95,74 %
06.09.2022 08:28 17,7 C 17,8 C 14,4 C 93 % 1016,1 hPa 0,0 l/m 0 min 0 min 28 W/m 6,4 km/h (2 Bft) 97,83 %
06.09.2022 08:30 17,8 C 17,8 C 14,4 C 93 % 1016,0 hPa 0,0 l/m 0 min 0 min 28 W/m 6,4 km/h (2 Bft) 97,87 %
06.09.2022 08:32 17,8 C 17,8 C 14,4 C 93 % 1016,1 hPa 0,0 l/m 0 min 0 min 28 W/m 12,9 km/h (3 Bft) 100,00 %
06.09.2022 08:34 17,9 C 17,8 C 14,4 C 94 % 1016,0 hPa 0,0 l/m 0 min 0 min 28 W/m 6,4 km/h (2 Bft) 100,00 %
06.09.2022 08:36 17,9 C 17,8 C 14,4 C 94 % 1016,0 hPa 0,0 l/m 0 min 0 min 29 W/m 6,4 km/h (2 Bft) 100,00 %
06.09.2022 08:38 18,0 C 17,8 C 14,4 C 93 % 1016,0 hPa 0,0 l/m 0 min 0 min 30 W/m 6,4 km/h (2 Bft) 97,22 %
06.09.2022 08:40 18,0 C 17,8 C 14,4 C 93 % 1016,0 hPa 0,0 l/m 0 min 0 min 30 W/m 3,2 km/h (1 Bft) 100,00 %
06.09.2022 08:42 18,1 C 17,8 C 14,4 C 93 % 1016,0 hPa 0,0 l/m 0 min 0 min 30 W/m 3,2 km/h (1 Bft) 100,00 %
06.09.2022 08:44 18,1 C 18,3 C 14,4 C 93 % 1016,0 hPa 0,0 l/m 0 min 0 min 32 W/m 6,4 km/h (2 Bft) 100,00 %
06.09.2022 08:46 18,1 C 18,3 C 14,4 C 93 % 1016,0 hPa 0,0 l/m 0 min 0 min 32 W/m 3,2 km/h (1 Bft) 95,74 %
06.09.2022 08:48 18,2 C 18,3 C 14,4 C 93 % 1016,0 hPa 0,0 l/m 0 min 0 min 32 W/m 3,2 km/h (1 Bft) 100,00 %
06.09.2022 08:50 18,2 C 18,3 C 14,4 C 93 % 1016,0 hPa 0,0 l/m 0 min 0 min 32 W/m 3,2 km/h (1 Bft) 100,00 %
06.09.2022 08:52 18,2 C 18,3 C 15,0 C 93 % 1016,0 hPa 0,0 l/m 0 min 0 min 33 W/m 6,4 km/h (2 Bft) 97,83 %
06.09.2022 08:54 18,3 C 18,3 C 15,0 C 93 % 1015,9 hPa 0,0 l/m 0 min 0 min 33 W/m 6,4 km/h (2 Bft) 100,00 %
06.09.2022 08:56 18,3 C 18,3 C 15,0 C 93 % 1015,9 hPa 0,0 l/m 0 min 0 min 33 W/m 6,4 km/h (2 Bft) 100,00 %
06.09.2022 08:58 18,4 C 18,3 C 15,0 C 93 % 1015,9 hPa 0,0 l/m 0 min 0 min 34 W/m 3,2 km/h (1 Bft) 100,00 %
06.09.2022 09:00 18,5 C 18,9 C 15,0 C 93 % 1015,9 hPa 0,0 l/m 0 min 0 min 36 W/m 6,4 km/h (2 Bft) 100,00 %
06.09.2022 09:02 18,6 C 18,9 C 15,0 C 92 % 1015,9 hPa 0,0 l/m 0 min 0 min 91 W/m 6,4 km/h (2 Bft) 100,00 %
06.09.2022 09:04 18,6 C 18,9 C 15,0 C 92 % 1015,9 hPa 0,0 l/m 2 min 0 min 174 W/m 3,2 km/h (1 Bft) 97,83 %
06.09.2022 09:06 18,7 C 18,9 C 15,0 C 92 % 1015,9 hPa 0,0 l/m 2 min 0 min 174 W/m 19,3 km/h (3 Bft) 100,00 %
06.09.2022 09:08 18,7 C 18,9 C 15,6 C 92 % 1015,9 hPa 0,0 l/m 2 min 0 min 177 W/m 9,7 km/h (2 Bft) 100,00 %
06.09.2022 09:10 18,8 C 18,9 C 15,6 C 91 % 1016,0 hPa 0,0 l/m 0 min 0 min 140 W/m 12,9 km/h (3 Bft) 97,87 %
06.09.2022 09:12 18,9 C 18,9 C 15,6 C 91 % 1016,0 hPa 0,0 l/m 0 min 0 min 109 W/m 12,9 km/h (3 Bft) 97,87 %
06.09.2022 09:14 19,0 C 18,9 C 15,6 C 90 % 1015,9 hPa 0,0 l/m 0 min 0 min 94 W/m 16,1 km/h (3 Bft) 100,00 %
06.09.2022 09:16 19,1 C 19,4 C 15,6 C 90 % 1015,9 hPa 0,0 l/m 0 min 0 min 79 W/m 16,1 km/h (3 Bft) 100,00 %
06.09.2022 09:18 19,3 C 19,4 C 15,6 C 89 % 1015,9 hPa 0,0 l/m 0 min 0 min 90 W/m 16,1 km/h (3 Bft) 100,00 %
06.09.2022 09:20 19,4 C 19,4 C 15,6 C 88 % 1015,9 hPa 0,0 l/m 0 min 0 min 137 W/m 16,1 km/h (3 Bft) 100,00 %
06.09.2022 09:22 19,4 C 19,4 C 15,6 C 88 % 1015,9 hPa 0,0 l/m 0 min 0 min 70 W/m 12,9 km/h (3 Bft) 100,00 %
06.09.2022 09:24 19,6 C 19,4 C 16,1 C 88 % 1015,9 hPa 0,0 l/m 0 min 0 min 53 W/m 12,9 km/h (3 Bft) 100,00 %
06.09.2022 09:26 19,7 C 20,0 C 16,1 C 88 % 1015,9 hPa 0,0 l/m 0 min 0 min 101 W/m 12,9 km/h (3 Bft) 100,00 %
06.09.2022 09:28 19,8 C 20,0 C 16,1 C 87 % 1015,8 hPa 0,0 l/m 0 min 0 min 73 W/m 12,9 km/h (3 Bft) 100,00 %
06.09.2022 09:30 19,8 C 20,0 C 16,1 C 87 % 1015,9 hPa 0,0 l/m 0 min 0 min 46 W/m 9,7 km/h (2 Bft) 97,87 %
06.09.2022 09:32 19,9 C 20,0 C 16,1 C 87 % 1015,8 hPa 0,0 l/m 0 min 0 min 76 W/m 12,9 km/h (3 Bft) 95,74 %
06.09.2022 09:34 20,1 C 20,0 C 16,1 C 86 % 1015,9 hPa 0,0 l/m 0 min 0 min 64 W/m 16,1 km/h (3 Bft) 100,00 %
06.09.2022 09:36 20,1 C 20,0 C 16,1 C 86 % 1015,9 hPa 0,0 l/m 0 min 0 min 42 W/m 6,4 km/h (2 Bft) 98,28 %
06.09.2022 09:38 20,2 C 20,0 C 16,1 C 85 % 1015,9 hPa 0,0 l/m 0 min 0 min 42 W/m 6,4 km/h (2 Bft) 97,22 %
06.09.2022 09:40 20,3 C 20,0 C 16,1 C 85 % 1015,9 hPa 0,0 l/m 0 min 0 min 43 W/m 12,9 km/h (3 Bft) 97,83 %
06.09.2022 09:42 20,4 C 20,0 C 16,1 C 85 % 1015,9 hPa 0,0 l/m 0 min 0 min 46 W/m 6,4 km/h (2 Bft) 97,87 %
06.09.2022 09:44 20,4 C 20,6 C 16,7 C 84 % 1015,9 hPa 0,0 l/m 0 min 0 min 59 W/m 12,9 km/h (3 Bft) 97,87 %
06.09.2022 09:46 20,6 C 20,6 C 16,7 C 84 % 1016,0 hPa 0,0 l/m 0 min 0 min 66 W/m 12,9 km/h (3 Bft) 97,87 %
06.09.2022 09:48 20,6 C 20,6 C 16,7 C 84 % 1015,9 hPa 0,0 l/m 0 min 0 min 45 W/m 12,9 km/h (3 Bft) 93,62 %
06.09.2022 09:50 20,7 C 20,6 C 16,7 C 84 % 1015,9 hPa 0,0 l/m 0 min 0 min 51 W/m 9,7 km/h (2 Bft) 97,87 %
06.09.2022 09:52 20,7 C 20,6 C 16,7 C 84 % 1015,9 hPa 0,0 l/m 0 min 0 min 51 W/m 12,9 km/h (3 Bft) 97,83 %
06.09.2022 09:54 20,8 C 21,1 C 16,7 C 84 % 1015,9 hPa 0,0 l/m 0 min 0 min 47 W/m 6,4 km/h (2 Bft) 95,74 %
06.09.2022 09:56 20,9 C 21,1 C 16,7 C 83 % 1015,9 hPa 0,0 l/m 0 min 0 min 104 W/m 12,9 km/h (3 Bft) 97,87 %
06.09.2022 09:58 21,0 C 21,1 C 17,2 C 83 % 1015,9 hPa 0,0 l/m 2 min 0 min 241 W/m 16,1 km/h (3 Bft) 97,87 %
06.09.2022 10:00 21,1 C 21,1 C 17,2 C 82 % 1015,9 hPa 0,0 l/m 2 min 0 min 297 W/m 19,3 km/h (3 Bft) 97,87 %
06.09.2022 10:02 21,2 C 21,1 C 17,2 C 81 % 1016,0 hPa 0,0 l/m 0 min 0 min 107 W/m 12,9 km/h (3 Bft) 93,62 %
06.09.2022 10:04 21,3 C 21,1 C 17,2 C 80 % 1016,0 hPa 0,0 l/m 0 min 0 min 52 W/m 16,1 km/h (3 Bft) 97,83 %
06.09.2022 10:06 21,4 C 21,1 C 17,2 C 79 % 1016,0 hPa 0,0 l/m 0 min 0 min 59 W/m 12,9 km/h (3 Bft) 98,31 %
06.09.2022 10:08 21,4 C 21,1 C 17,2 C 79 % 1016,0 hPa 0,0 l/m 0 min 0 min 46 W/m 12,9 km/h (3 Bft) 97,14 %
06.09.2022 10:10 21,6 C 21,7 C 17,2 C 79 % 1016,0 hPa 0,0 l/m 0 min 0 min 94 W/m 16,1 km/h (3 Bft) 100,00 %
06.09.2022 10:12 21,7 C 21,7 C 17,8 C 79 % 1016,0 hPa 0,0 l/m 0 min 0 min 130 W/m 12,9 km/h (3 Bft) 97,87 %
06.09.2022 10:14 21,8 C 22,2 C 17,8 C 79 % 1016,0 hPa 0,0 l/m 0 min 0 min 48 W/m 12,9 km/h (3 Bft) 100,00 %
06.09.2022 10:16 21,9 C 22,2 C 17,8 C 78 % 1016,0 hPa 0,0 l/m 0 min 0 min 46 W/m 16,1 km/h (3 Bft) 97,83 %
06.09.2022 10:18 22,0 C 23,3 C 17,8 C 78 % 1015,9 hPa 0,0 l/m 0 min 0 min 46 W/m 12,9 km/h (3 Bft) 97,87 %
06.09.2022 10:20 22,1 C 23,3 C 17,8 C 78 % 1015,9 hPa 0,0 l/m 0 min 0 min 57 W/m 12,9 km/h (3 Bft) 95,74 %
06.09.2022 10:22 22,2 C 23,3 C 17,8 C 77 % 1015,9 hPa 0,0 l/m 0 min 0 min 49 W/m 9,7 km/h (2 Bft) 97,87 %
06.09.2022 10:24 22,3 C 23,3 C 18,3 C 77 % 1015,9 hPa 0,0 l/m 0 min 0 min 46 W/m 12,9 km/h (3 Bft) 97,87 %
06.09.2022 10:26 22,4 C 23,3 C 18,3 C 77 % 1015,9 hPa 0,0 l/m 0 min 0 min 46 W/m 16,1 km/h (3 Bft) 97,87 %
06.09.2022 10:28 22,5 C 23,3 C 18,3 C 76 % 1015,9 hPa 0,0 l/m 0 min 0 min 231 W/m 12,9 km/h (3 Bft) 93,48 %
06.09.2022 10:30 22,6 C 23,3 C 18,3 C 76 % 1015,9 hPa 0,0 l/m 0 min 0 min 128 W/m 16,1 km/h (3 Bft) 95,74 %
06.09.2022 10:32 22,7 C 23,3 C 18,3 C 75 % 1015,9 hPa 0,0 l/m 0 min 0 min 51 W/m 16,1 km/h (3 Bft) 95,74 %
06.09.2022 10:34 22,8 C 23,3 C 18,3 C 75 % 1015,9 hPa 0,0 l/m 0 min 0 min 54 W/m 16,1 km/h (3 Bft) 93,62 %
06.09.2022 10:36 22,9 C 23,3 C 18,3 C 74 % 1015,9 hPa 0,0 l/m 0 min 0 min 46 W/m 12,9 km/h (3 Bft) 96,55 %
06.09.2022 10:38 22,9 C 23,3 C 18,9 C 74 % 1015,8 hPa 0,0 l/m 0 min 0 min 47 W/m 9,7 km/h (2 Bft) 94,44 %
06.09.2022 10:40 23,0 C 23,3 C 18,9 C 73 % 1015,8 hPa 0,0 l/m 0 min 0 min 47 W/m 12,9 km/h (3 Bft) 95,65 %
06.09.2022 10:42 23,1 C 23,3 C 18,9 C 73 % 1015,7 hPa 0,0 l/m 0 min 0 min 47 W/m 6,4 km/h (2 Bft) 95,74 %
06.09.2022 10:44 23,2 C 23,3 C 18,9 C 73 % 1015,8 hPa 0,0 l/m 0 min 0 min 47 W/m 12,9 km/h (3 Bft) 95,74 %
06.09.2022 10:46 23,2 C 23,9 C 18,9 C 73 % 1015,7 hPa 0,0 l/m 0 min 0 min 48 W/m 6,4 km/h (2 Bft) 91,49 %
06.09.2022 10:48 23,3 C 24,4 C 18,9 C 73 % 1015,8 hPa 0,0 l/m 0 min 0 min 48 W/m 6,4 km/h (2 Bft) 95,74 %
06.09.2022 10:50 23,4 C 25,0 C 18,9 C 73 % 1015,8 hPa 0,0 l/m 0 min 0 min 48 W/m 9,7 km/h (2 Bft) 95,74 %
06.09.2022 10:52 23,4 C 25,6 C 18,9 C 73 % 1015,7 hPa 0,0 l/m 0 min 0 min 50 W/m 9,7 km/h (2 Bft) 95,65 %
06.09.2022 10:54 23,6 C 27,2 C 18,9 C 72 % 1015,7 hPa 0,0 l/m 0 min 0 min 53 W/m 6,4 km/h (2 Bft) 95,74 %
06.09.2022 10:56 23,6 C 27,8 C 18,9 C 71 % 1015,7 hPa 0,0 l/m 0 min 0 min 79 W/m 9,7 km/h (2 Bft) 95,74 %
06.09.2022 10:58 23,7 C 27,2 C 18,9 C 71 % 1015,7 hPa 0,0 l/m 0 min 0 min 70 W/m 16,1 km/h (3 Bft) 95,74 %
06.09.2022 11:00 23,8 C 26,1 C 18,9 C 71 % 1015,7 hPa 0,0 l/m 0 min 0 min 241 W/m 6,4 km/h (2 Bft) 93,62 %
06.09.2022 11:02 23,8 C 25,6 C 18,9 C 71 % 1015,7 hPa 0,0 l/m 2 min 0 min 570 W/m 6,4 km/h (2 Bft) 93,62 %
06.09.2022 11:04 23,9 C 25,6 C 18,9 C 71 % 1015,7 hPa 0,0 l/m 2 min 0 min 475 W/m 6,4 km/h (2 Bft) 95,74 %
06.09.2022 11:06 24,0 C 25,6 C 19,4 C 71 % 1015,6 hPa 0,0 l/m 0 min 0 min 268 W/m 6,4 km/h (2 Bft) 98,31 %
06.09.2022 11:08 24,1 C 25,6 C 19,4 C 71 % 1015,7 hPa 0,0 l/m 0 min 0 min 209 W/m 6,4 km/h (2 Bft) 94,29 %
06.09.2022 11:10 24,1 C 25,0 C 19,4 C 71 % 1015,6 hPa 0,0 l/m 0 min 0 min 186 W/m 6,4 km/h (2 Bft) 97,87 %
06.09.2022 11:12 24,1 C 25,0 C 19,4 C 71 % 1015,7 hPa 0,0 l/m 0 min 0 min 153 W/m 3,2 km/h (1 Bft) 97,87 %
06.09.2022 11:14 24,2 C 26,1 C 19,4 C 70 % 1015,7 hPa 0,0 l/m 0 min 0 min 80 W/m 6,4 km/h (2 Bft) 97,83 %
06.09.2022 11:16 24,2 C 26,1 C 19,4 C 70 % 1015,7 hPa 0,0 l/m 0 min 0 min 155 W/m 9,7 km/h (2 Bft) 100,00 %
06.09.2022 11:18 24,3 C 26,1 C 19,4 C 70 % 1015,6 hPa 0,0 l/m 0 min 0 min 200 W/m 6,4 km/h (2 Bft) 97,87 %
06.09.2022 11:20 24,3 C 26,1 C 19,4 C 70 % 1015,7 hPa 0,0 l/m 0 min 0 min 173 W/m 6,4 km/h (2 Bft) 97,87 %
06.09.2022 11:22 24,4 C 25,6 C 19,4 C 70 % 1015,7 hPa 0,0 l/m 0 min 0 min 68 W/m 6,4 km/h (2 Bft) 100,00 %
06.09.2022 11:24 24,4 C 25,6 C 20,0 C 69 % 1015,7 hPa 0,0 l/m 0 min 0 min 71 W/m 19,3 km/h (3 Bft) 100,00 %
06.09.2022 11:26 24,5 C 25,0 C 20,0 C 67 % 1015,7 hPa 0,0 l/m 0 min 0 min 122 W/m 16,1 km/h (3 Bft) 100,00 %
06.09.2022 11:28 24,5 C 24,4 C 20,0 C 66 % 1015,6 hPa 0,0 l/m 0 min 0 min 285 W/m 9,7 km/h (2 Bft) 95,74 %
06.09.2022 11:30 24,6 C 24,4 C 20,0 C 66 % 1015,5 hPa 0,0 l/m 0 min 0 min 95 W/m 12,9 km/h (3 Bft) 100,00 %
06.09.2022 11:32 24,6 C 24,4 C 20,0 C 67 % 1015,5 hPa 0,0 l/m 0 min 0 min 113 W/m 12,9 km/h (3 Bft) 97,87 %
06.09.2022 11:34 24,6 C 25,0 C 20,0 C 67 % 1015,5 hPa 0,0 l/m 2 min 0 min 331 W/m 3,2 km/h (1 Bft) 100,00 %
06.09.2022 11:36 24,7 C 25,0 C 20,0 C 68 % 1015,5 hPa 0,0 l/m 0 min 0 min 187 W/m 6,4 km/h (2 Bft) 100,00 %
06.09.2022 11:38 24,8 C 25,0 C 20,6 C 67 % 1015,4 hPa 0,0 l/m 0 min 0 min 143 W/m 12,9 km/h (3 Bft) 100,00 %
06.09.2022 11:40 24,8 C 25,6 C 20,6 C 67 % 1015,4 hPa 0,0 l/m 0 min 0 min 188 W/m 12,9 km/h (3 Bft) 97,87 %
06.09.2022 11:42 24,9 C 25,6 C 20,6 C 66 % 1015,4 hPa 0,0 l/m 0 min 0 min 192 W/m 6,4 km/h (2 Bft) 95,74 %
06.09.2022 11:44 24,9 C 25,6 C 20,6 C 66 % 1015,3 hPa 0,0 l/m 0 min 0 min 158 W/m 12,9 km/h (3 Bft) 95,74 %
06.09.2022 11:46 25,1 C 25,6 C 21,1 C 66 % 1015,3 hPa 0,0 l/m 0 min 0 min 130 W/m 12,9 km/h (3 Bft) 95,74 %
06.09.2022 11:48 25,1 C 25,6 C 21,7 C 65 % 1015,3 hPa 0,0 l/m 0 min 0 min 130 W/m 12,9 km/h (3 Bft) 97,87 %
06.09.2022 11:50 25,2 C 25,6 C 21,7 C 65 % 1015,3 hPa 0,0 l/m 2 min 0 min 426 W/m 6,4 km/h (2 Bft) 95,65 %
06.09.2022 11:52 25,2 C 26,1 C 22,2 C 66 % 1015,2 hPa 0,0 l/m 2 min 0 min 679 W/m 3,2 km/h (1 Bft) 97,87 %
06.09.2022 11:54 25,2 C 26,7 C 22,8 C 66 % 1015,3 hPa 0,0 l/m 2 min 0 min 688 W/m 9,7 km/h (2 Bft) 97,87 %
06.09.2022 11:56 25,3 C 27,2 C 23,9 C 65 % 1015,2 hPa 0,0 l/m 2 min 0 min 691 W/m 6,4 km/h (2 Bft) 97,87 %
06.09.2022 11:58 25,4 C 27,8 C 23,9 C 65 % 1015,2 hPa 0,0 l/m 2 min 0 min 695 W/m 19,3 km/h (3 Bft) 97,87 %
06.09.2022 12:00 25,6 C 28,9 C 24,4 C 64 % 1015,1 hPa 0,0 l/m 2 min 0 min 698 W/m 6,4 km/h (2 Bft) 97,87 %
06.09.2022 12:02 25,6 C 30,6 C 25,6 C 64 % 1015,1 hPa 0,0 l/m 2 min 0 min 698 W/m 3,2 km/h (1 Bft) 97,83 %
06.09.2022 12:04 25,7 C 31,7 C 25,6 C 63 % 1015,1 hPa 0,0 l/m 2 min 0 min 701 W/m 12,9 km/h (3 Bft) 97,87 %
06.09.2022 12:07 25,8 C 33,9 C 26,7 C 63 % 1015,2 hPa 0,0 l/m 3 min 0 min 708 W/m 6,4 km/h (2 Bft) 97,87 %
06.09.2022 12:08 25,9 C 33,9 C 26,1 C 64 % 1015,2 hPa 0,0 l/m 1 min 0 min 706 W/m 6,4 km/h (2 Bft) 98,00 %
06.09.2022 12:10 26,0 C 35,0 C 26,7 C 63 % 1015,3 hPa 0,0 l/m 2 min 0 min 709 W/m 6,4 km/h (2 Bft) 97,87 %
06.09.2022 12:12 26,1 C 34,4 C 26,1 C 62 % 1015,4 hPa 0,0 l/m 2 min 0 min 710 W/m 6,4 km/h (2 Bft) 100,00 %
06.09.2022 12:14 26,2 C 34,4 C 27,2 C 63 % 1015,4 hPa 0,0 l/m 2 min 0 min 715 W/m 16,1 km/h (3 Bft) 100,00 %
06.09.2022 12:16 26,2 C 34,4 C 27,2 C 62 % 1015,4 hPa 0,0 l/m 2 min 0 min 715 W/m 16,1 km/h (3 Bft) 100,00 %
06.09.2022 12:18 26,3 C 32,8 C 26,7 C 62 % 1015,4 hPa 0,0 l/m 2 min 0 min 716 W/m 9,7 km/h (2 Bft) 100,00 %
06.09.2022 12:20 26,3 C 32,8 C 26,1 C 62 % 1015,4 hPa 0,0 l/m 2 min 0 min 716 W/m 12,9 km/h (3 Bft) 100,00 %
06.09.2022 12:22 26,4 C 31,7 C 25,6 C 62 % 1015,4 hPa 0,0 l/m 2 min 0 min 716 W/m 12,9 km/h (3 Bft) 97,87 %
06.09.2022 12:24 26,6 C 31,7 C 25,0 C 62 % 1015,4 hPa 0,0 l/m 2 min 0 min 714 W/m 9,7 km/h (2 Bft) 100,00 %
06.09.2022 12:26 26,7 C 31,7 C 24,4 C 62 % 1015,4 hPa 0,0 l/m 2 min 0 min 717 W/m 6,4 km/h (2 Bft) 97,87 %
06.09.2022 12:28 26,8 C 31,1 C 23,9 C 62 % 1015,3 hPa 0,0 l/m 2 min 0 min 721 W/m 6,4 km/h (2 Bft) 100,00 %
06.09.2022 12:30 26,9 C 30,6 C 23,9 C 62 % 1015,2 hPa 0,0 l/m 2 min 0 min 726 W/m 12,9 km/h (3 Bft) 100,00 %
06.09.2022 12:32 27,0 C 29,4 C 23,3 C 62 % 1015,2 hPa 0,0 l/m 2 min 0 min 729 W/m 16,1 km/h (3 Bft) 100,00 %
06.09.2022 12:34 27,1 C 28,9 C 23,3 C 61 % 1015,3 hPa 0,0 l/m 2 min 0 min 728 W/m 6,4 km/h (2 Bft) 100,00 %
06.09.2022 12:36 27,2 C 28,3 C 22,8 C 61 % 1015,3 hPa 0,0 l/m 2 min 0 min 728 W/m 19,3 km/h (3 Bft) 97,87 %
06.09.2022 12:38 27,2 C 28,3 C 22,8 C 61 % 1015,3 hPa 0,0 l/m 2 min 0 min 721 W/m 9,7 km/h (2 Bft) 100,00 %
06.09.2022 12:40 27,3 C 27,8 C 22,8 C 60 % 1015,3 hPa 0,0 l/m 2 min 0 min 381 W/m 19,3 km/h (3 Bft) 100,00 %
06.09.2022 12:42 27,3 C 27,2 C 22,8 C 60 % 1015,2 hPa 0,0 l/m 0 min 0 min 333 W/m 16,1 km/h (3 Bft) 100,00 %
06.09.2022 12:44 27,3 C 26,7 C 22,2 C 60 % 1015,2 hPa 0,0 l/m 0 min 0 min 203 W/m 22,5 km/h (4 Bft) 100,00 %
06.09.2022 12:46 27,2 C 26,7 C 22,2 C 60 % 1015,2 hPa 0,0 l/m 0 min 0 min 111 W/m 12,9 km/h (3 Bft) 100,00 %
06.09.2022 12:48 27,2 C 26,7 C 22,2 C 59 % 1015,2 hPa 0,0 l/m 0 min 0 min 156 W/m 19,3 km/h (3 Bft) 100,00 %
06.09.2022 12:50 27,2 C 26,7 C 22,2 C 60 % 1015,2 hPa 0,0 l/m 0 min 0 min 314 W/m 9,7 km/h (2 Bft) 100,00 %
06.09.2022 12:52 27,2 C 26,7 C 22,2 C 59 % 1015,2 hPa 0,0 l/m 0 min 0 min 206 W/m 19,3 km/h (3 Bft) 100,00 %
06.09.2022 12:54 27,3 C 26,7 C 22,2 C 60 % 1015,2 hPa 0,0 l/m 0 min 0 min 85 W/m 16,1 km/h (3 Bft) 100,00 %
06.09.2022 12:56 27,3 C 26,7 C 22,2 C 59 % 1015,2 hPa 0,0 l/m 0 min 0 min 149 W/m 9,7 km/h (2 Bft) 100,00 %
06.09.2022 12:58 27,3 C 26,7 C 22,2 C 59 % 1015,1 hPa 0,0 l/m 0 min 0 min 182 W/m 19,3 km/h (3 Bft) 100,00 %
06.09.2022 13:00 27,3 C 26,7 C 22,2 C 59 % 1015,1 hPa 0,0 l/m 0 min 0 min 141 W/m 22,5 km/h (4 Bft) 100,00 %
06.09.2022 13:02 27,3 C 26,7 C 22,2 C 59 % 1015,1 hPa 0,0 l/m 0 min 0 min 69 W/m 12,9 km/h (3 Bft) 97,87 %
06.09.2022 13:04 27,3 C 26,7 C 22,2 C 59 % 1015,1 hPa 0,0 l/m 0 min 0 min 67 W/m 12,9 km/h (3 Bft) 97,87 %
06.09.2022 13:06 27,3 C 26,7 C 22,2 C 59 % 1015,1 hPa 0,0 l/m 0 min 0 min 61 W/m 16,1 km/h (3 Bft) 95,65 %
06.09.2022 13:08 27,3 C 26,7 C 22,2 C 59 % 1015,1 hPa 0,0 l/m 0 min 0 min 62 W/m 6,4 km/h (2 Bft) 95,74 %
06.09.2022 13:10 27,3 C 26,7 C 22,2 C 59 % 1015,1 hPa 0,0 l/m 0 min 0 min 62 W/m 3,2 km/h (1 Bft) 97,87 %
06.09.2022 13:12 27,4 C 26,7 C 22,2 C 59 % 1015,1 hPa 0,0 l/m 0 min 0 min 64 W/m 12,9 km/h (3 Bft) 97,87 %
06.09.2022 13:14 27,3 C 26,7 C 22,2 C 59 % 1015,1 hPa 0,0 l/m 0 min 0 min 69 W/m 3,2 km/h (1 Bft) 95,74 %
06.09.2022 13:16 27,3 C 26,7 C 22,2 C 59 % 1015,1 hPa 0,0 l/m 0 min 0 min 87 W/m 6,4 km/h (2 Bft) 95,65 %
06.09.2022 13:18 27,3 C 26,7 C 22,2 C 59 % 1015,0 hPa 0,0 l/m 0 min 0 min 75 W/m 6,4 km/h (2 Bft) 95,74 %
06.09.2022 13:20 27,4 C 26,7 C 22,2 C 59 % 1015,1 hPa 0,0 l/m 0 min 0 min 79 W/m 12,9 km/h (3 Bft) 97,87 %
06.09.2022 13:22 27,4 C 27,2 C 22,8 C 59 % 1015,1 hPa 0,0 l/m 0 min 0 min 78 W/m 19,3 km/h (3 Bft) 95,74 %
06.09.2022 13:24 27,5 C 27,2 C 22,8 C 59 % 1015,1 hPa 0,0 l/m 0 min 0 min 82 W/m 19,3 km/h (3 Bft) 95,74 %
06.09.2022 13:26 27,6 C 27,2 C 22,8 C 59 % 1015,1 hPa 0,0 l/m 0 min 0 min 129 W/m 9,7 km/h (2 Bft) 95,74 %
06.09.2022 13:28 27,6 C 27,2 C 22,8 C 59 % 1015,1 hPa 0,0 l/m 0 min 0 min 144 W/m 9,7 km/h (2 Bft) 95,74 %
06.09.2022 13:30 27,6 C 27,2 C 22,8 C 59 % 1015,2 hPa 0,0 l/m 0 min 0 min 141 W/m 12,9 km/h (3 Bft) 97,83 %
06.09.2022 13:32 27,7 C 27,2 C 22,8 C 59 % 1015,2 hPa 0,0 l/m 0 min 0 min 317 W/m 12,9 km/h (3 Bft) 95,74 %
06.09.2022 13:34 27,8 C 27,2 C 22,8 C 58 % 1015,2 hPa 0,0 l/m 2 min 0 min 748 W/m 16,1 km/h (3 Bft) 93,62 %
06.09.2022 13:36 27,8 C 27,2 C 22,8 C 58 % 1015,1 hPa 0,0 l/m 2 min 0 min 754 W/m 6,4 km/h (2 Bft) 91,49 %
06.09.2022 13:38 27,9 C 27,2 C 22,8 C 58 % 1015,2 hPa 0,0 l/m 2 min 0 min 755 W/m 12,9 km/h (3 Bft) 93,62 %
06.09.2022 13:40 27,9 C 27,2 C 22,8 C 58 % 1015,1 hPa 0,0 l/m 2 min 0 min 754 W/m 6,4 km/h (2 Bft) 91,30 %
06.09.2022 13:42 27,9 C 27,2 C 22,8 C 58 % 1015,2 hPa 0,0 l/m 2 min 0 min 754 W/m 12,9 km/h (3 Bft) 93,62 %
06.09.2022 13:44 28,0 C 27,8 C 22,8 C 58 % 1015,2 hPa 0,0 l/m 2 min 0 min 753 W/m 6,4 km/h (2 Bft) 93,62 %
06.09.2022 13:46 28,1 C 27,8 C 22,8 C 58 % 1015,1 hPa 0,0 l/m 2 min 0 min 748 W/m 6,4 km/h (2 Bft) 95,74 %
06.09.2022 13:48 28,2 C 28,3 C 22,8 C 58 % 1015,2 hPa 0,0 l/m 2 min 0 min 750 W/m 12,9 km/h (3 Bft) 95,74 %
06.09.2022 13:50 28,3 C 28,9 C 22,8 C 58 % 1015,2 hPa 0,0 l/m 2 min 0 min 750 W/m 12,9 km/h (3 Bft) 95,74 %
06.09.2022 13:52 28,3 C 29,4 C 22,8 C 57 % 1015,1 hPa 0,0 l/m 2 min 0 min 747 W/m 16,1 km/h (3 Bft) 93,48 %
06.09.2022 13:54 28,4 C 30,0 C 22,8 C 57 % 1015,0 hPa 0,0 l/m 2 min 0 min 749 W/m 12,9 km/h (3 Bft) 95,74 %
06.09.2022 13:56 28,6 C 31,7 C 22,8 C 58 % 1015,0 hPa 0,0 l/m 2 min 0 min 755 W/m 6,4 km/h (2 Bft) 95,74 %
06.09.2022 13:58 28,6 C 33,3 C 22,8 C 57 % 1015,0 hPa 0,0 l/m 2 min 0 min 756 W/m 6,4 km/h (2 Bft) 93,62 %
06.09.2022 14:00 28,6 C 33,9 C 22,8 C 56 % 1014,9 hPa 0,0 l/m 2 min 0 min 757 W/m 6,4 km/h (2 Bft) 95,74 %
06.09.2022 14:02 28,7 C 34,4 C 22,8 C 56 % 1015,0 hPa 0,0 l/m 2 min 0 min 762 W/m 12,9 km/h (3 Bft) 95,74 %
06.09.2022 14:04 28,7 C 35,6 C 22,8 C 56 % 1014,9 hPa 0,0 l/m 2 min 0 min 764 W/m 6,4 km/h (2 Bft) 95,65 %
06.09.2022 14:06 28,8 C 36,7 C 23,3 C 57 % 1015,0 hPa 0,0 l/m 2 min 0 min 771 W/m 6,4 km/h (2 Bft) 97,87 %
06.09.2022 14:08 28,9 C 36,7 C 23,3 C 57 % 1015,0 hPa 0,0 l/m 2 min 0 min 769 W/m 12,9 km/h (3 Bft) 95,74 %
06.09.2022 14:10 29,1 C 37,2 C 23,3 C 57 % 1014,9 hPa 0,0 l/m 2 min 0 min 777 W/m 12,9 km/h (3 Bft) 97,87 %
06.09.2022 14:12 29,2 C 37,2 C 23,3 C 56 % 1014,9 hPa 0,0 l/m 2 min 0 min 774 W/m 9,7 km/h (2 Bft) 95,74 %
06.09.2022 14:14 29,3 C 36,7 C 23,3 C 56 % 1014,9 hPa 0,0 l/m 2 min 0 min 805 W/m 16,1 km/h (3 Bft) 97,87 %
06.09.2022 14:16 29,5 C 36,7 C 23,9 C 56 % 1014,8 hPa 0,0 l/m 2 min 0 min 784 W/m 12,9 km/h (3 Bft) 97,83 %
06.09.2022 14:18 29,6 C 36,7 C 23,9 C 55 % 1014,8 hPa 0,0 l/m 2 min 0 min 781 W/m 12,9 km/h (3 Bft) 97,87 %
06.09.2022 14:20 29,7 C 36,7 C 23,9 C 55 % 1014,8 hPa 0,0 l/m 2 min 0 min 789 W/m 16,1 km/h (3 Bft) 97,87 %
06.09.2022 14:22 29,8 C 36,7 C 23,9 C 55 % 1014,8 hPa 0,0 l/m 2 min 0 min 791 W/m 6,4 km/h (2 Bft) 97,87 %
06.09.2022 14:24 29,9 C 36,7 C 23,9 C 55 % 1014,8 hPa 0,0 l/m 2 min 0 min 803 W/m 12,9 km/h (3 Bft) 100,00 %
06.09.2022 14:26 29,9 C 37,2 C 23,9 C 55 % 1014,8 hPa 0,0 l/m 2 min 0 min 794 W/m 12,9 km/h (3 Bft) 100,00 %
06.09.2022 14:28 30,1 C 36,7 C 23,9 C 54 % 1014,8 hPa 0,0 l/m 2 min 0 min 777 W/m 12,9 km/h (3 Bft) 100,00 %
06.09.2022 14:30 30,0 C 33,9 C 23,9 C 54 % 1014,8 hPa 0,0 l/m 2 min 0 min 624 W/m 12,9 km/h (3 Bft) 100,00 %
06.09.2022 14:32 29,9 C 33,9 C 23,9 C 54 % 1014,8 hPa 0,0 l/m 0 min 0 min 132 W/m 9,7 km/h (2 Bft) 100,00 %
06.09.2022 14:34 29,9 C 35,0 C 23,9 C 54 % 1014,8 hPa 0,0 l/m 2 min 0 min 759 W/m 3,2 km/h (1 Bft) 100,00 %
06.09.2022 14:36 29,9 C 35,0 C 23,9 C 54 % 1014,8 hPa 0,0 l/m 2 min 0 min 770 W/m 9,7 km/h (2 Bft) 100,00 %
06.09.2022 14:38 29,8 C 35,0 C 23,9 C 52 % 1014,7 hPa 0,0 l/m 2 min 0 min 752 W/m 12,9 km/h (3 Bft) 100,00 %
06.09.2022 14:40 29,8 C 34,4 C 23,9 C 52 % 1014,8 hPa 0,0 l/m 2 min 0 min 742 W/m 25,7 km/h (4 Bft) 100,00 %
06.09.2022 14:42 29,8 C 33,3 C 23,9 C 51 % 1014,8 hPa 0,0 l/m 2 min 0 min 739 W/m 12,9 km/h (3 Bft) 100,00 %
06.09.2022 14:44 29,9 C 33,3 C 23,9 C 52 % 1014,7 hPa 0,0 l/m 2 min 0 min 737 W/m 6,4 km/h (2 Bft) 97,87 %
06.09.2022 14:46 29,9 C 34,4 C 23,9 C 51 % 1014,6 hPa 0,0 l/m 2 min 0 min 729 W/m 6,4 km/h (2 Bft) 100,00 %
06.09.2022 14:48 30,0 C 33,9 C 23,9 C 52 % 1014,6 hPa 0,0 l/m 2 min 0 min 722 W/m 12,9 km/h (3 Bft) 100,00 %
06.09.2022 14:50 30,1 C 33,3 C 23,9 C 48 % 1014,6 hPa 0,0 l/m 2 min 0 min 726 W/m 12,9 km/h (3 Bft) 100,00 %
06.09.2022 14:52 30,1 C 32,2 C 24,4 C 46 % 1014,6 hPa 0,0 l/m 2 min 0 min 731 W/m 16,1 km/h (3 Bft) 97,83 %
06.09.2022 14:54 30,1 C 32,8 C 24,4 C 46 % 1014,6 hPa 0,0 l/m 2 min 0 min 728 W/m 12,9 km/h (3 Bft) 100,00 %
06.09.2022 14:56 30,2 C 32,8 C 24,4 C 47 % 1014,5 hPa 0,0 l/m 2 min 0 min 723 W/m 19,3 km/h (3 Bft) 100,00 %
06.09.2022 14:58 30,3 C 32,8 C 24,4 C 49 % 1014,5 hPa 0,0 l/m 2 min 0 min 716 W/m 6,4 km/h (2 Bft) 100,00 %
06.09.2022 15:00 30,2 C 32,2 C 23,9 C 49 % 1014,5 hPa 0,0 l/m 2 min 0 min 716 W/m 16,1 km/h (3 Bft) 100,00 %
06.09.2022 15:02 30,1 C 32,2 C 23,9 C 50 % 1014,5 hPa 0,0 l/m 2 min 0 min 714 W/m 22,5 km/h (4 Bft) 100,00 %
06.09.2022 15:04 30,1 C 32,2 C 24,4 C 50 % 1014,5 hPa 0,0 l/m 2 min 0 min 713 W/m 9,7 km/h (2 Bft) 100,00 %
06.09.2022 15:06 30,1 C 31,7 C 24,4 C 49 % 1014,5 hPa 0,0 l/m 2 min 0 min 714 W/m 9,7 km/h (2 Bft) 100,00 %
06.09.2022 15:08 30,2 C 31,7 C 24,4 C 49 % 1014,5 hPa 0,0 l/m 2 min 0 min 702 W/m 16,1 km/h (3 Bft) 97,87 %
06.09.2022 15:10 30,2 C 31,7 C 24,4 C 49 % 1014,5 hPa 0,0 l/m 2 min 0 min 698 W/m 9,7 km/h (2 Bft) 100,00 %
06.09.2022 15:12 30,3 C 31,7 C 23,9 C 49 % 1014,5 hPa 0,0 l/m 2 min 0 min 702 W/m 3,2 km/h (1 Bft) 100,00 %
06.09.2022 15:14 30,4 C 31,7 C 23,9 C 49 % 1014,5 hPa 0,0 l/m 2 min 0 min 703 W/m 12,9 km/h (3 Bft) 100,00 %
06.09.2022 15:16 30,3 C 30,6 C 23,9 C 47 % 1014,5 hPa 0,0 l/m 2 min 0 min 693 W/m 19,3 km/h (3 Bft) 97,83 %
06.09.2022 15:18 30,2 C 30,6 C 23,9 C 46 % 1014,4 hPa 0,0 l/m 2 min 0 min 694 W/m 16,1 km/h (3 Bft) 97,87 %
06.09.2022 15:20 30,2 C 30,6 C 24,4 C 46 % 1014,4 hPa 0,0 l/m 2 min 0 min 692 W/m 9,7 km/h (2 Bft) 97,87 %
06.09.2022 15:22 30,3 C 30,6 C 24,4 C 45 % 1014,4 hPa 0,0 l/m 2 min 0 min 687 W/m 6,4 km/h (2 Bft) 97,87 %
06.09.2022 15:24 30,4 C 31,1 C 24,4 C 46 % 1014,4 hPa 0,0 l/m 2 min 0 min 684 W/m 12,9 km/h (3 Bft) 95,74 %
06.09.2022 15:26 30,4 C 31,1 C 24,4 C 45 % 1014,4 hPa 0,0 l/m 2 min 0 min 684 W/m 16,1 km/h (3 Bft) 97,87 %
06.09.2022 15:28 30,6 C 31,1 C 24,4 C 44 % 1014,4 hPa 0,0 l/m 2 min 0 min 682 W/m 12,9 km/h (3 Bft) 97,83 %
06.09.2022 15:30 30,5 C 31,1 C 24,4 C 44 % 1014,4 hPa 0,0 l/m 2 min 0 min 680 W/m 6,4 km/h (2 Bft) 97,87 %
06.09.2022 15:32 30,4 C 32,2 C 24,4 C 44 % 1014,4 hPa 0,0 l/m 2 min 0 min 678 W/m 9,7 km/h (2 Bft) 97,87 %
06.09.2022 15:34 30,5 C 32,8 C 24,4 C 45 % 1014,4 hPa 0,0 l/m 2 min 0 min 672 W/m 16,1 km/h (3 Bft) 97,87 %
06.09.2022 15:36 30,6 C 32,2 C 24,4 C 44 % 1014,3 hPa 0,0 l/m 2 min 0 min 668 W/m 9,7 km/h (2 Bft) 97,87 %
06.09.2022 15:38 30,6 C 32,2 C 24,4 C 43 % 1014,3 hPa 0,0 l/m 2 min 0 min 670 W/m 9,7 km/h (2 Bft) 97,87 %
06.09.2022 15:40 30,6 C 31,7 C 24,4 C 43 % 1014,3 hPa 0,0 l/m 2 min 0 min 666 W/m 9,7 km/h (2 Bft) 97,83 %
06.09.2022 15:42 30,7 C 31,7 C 24,4 C 42 % 1014,3 hPa 0,0 l/m 2 min 0 min 658 W/m 9,7 km/h (2 Bft) 95,74 %
06.09.2022 15:44 30,7 C 31,7 C 24,4 C 42 % 1014,2 hPa 0,0 l/m 2 min 0 min 655 W/m 12,9 km/h (3 Bft) 97,87 %
06.09.2022 15:46 30,7 C 31,7 C 24,4 C 42 % 1014,2 hPa 0,0 l/m 2 min 0 min 655 W/m 12,9 km/h (3 Bft) 97,87 %
06.09.2022 15:48 30,7 C 31,7 C 24,4 C 43 % 1014,3 hPa 0,0 l/m 2 min 0 min 641 W/m 19,3 km/h (3 Bft) 97,87 %
06.09.2022 15:50 30,8 C 31,7 C 24,4 C 43 % 1014,2 hPa 0,0 l/m 2 min 0 min 645 W/m 6,4 km/h (2 Bft) 97,87 %
06.09.2022 15:52 30,8 C 31,1 C 24,4 C 43 % 1014,2 hPa 0,0 l/m 2 min 0 min 637 W/m 12,9 km/h (3 Bft) 97,83 %
06.09.2022 15:54 30,8 C 30,6 C 24,4 C 42 % 1014,2 hPa 0,0 l/m 2 min 0 min 631 W/m 6,4 km/h (2 Bft) 95,74 %
06.09.2022 15:56 30,8 C 30,6 C 24,4 C 42 % 1014,2 hPa 0,0 l/m 2 min 0 min 620 W/m 12,9 km/h (3 Bft) 97,87 %
06.09.2022 15:58 30,8 C 30,6 C 24,4 C 43 % 1014,2 hPa 0,0 l/m 2 min 0 min 634 W/m 16,1 km/h (3 Bft) 97,87 %
06.09.2022 16:00 30,7 C 30,0 C 24,4 C 41 % 1014,1 hPa 0,0 l/m 2 min 0 min 631 W/m 9,7 km/h (2 Bft) 97,87 %
06.09.2022 16:02 30,7 C 30,0 C 24,4 C 42 % 1014,1 hPa 0,0 l/m 2 min 0 min 630 W/m 16,1 km/h (3 Bft) 93,62 %
06.09.2022 16:04 30,6 C 30,0 C 24,4 C 42 % 1014,1 hPa 0,0 l/m 2 min 0 min 632 W/m 12,9 km/h (3 Bft) 97,83 %
06.09.2022 16:06 30,5 C 30,0 C 24,4 C 42 % 1014,0 hPa 0,0 l/m 2 min 0 min 613 W/m 16,1 km/h (3 Bft) 97,87 %
06.09.2022 16:08 30,4 C 30,0 C 24,4 C 42 % 1014,1 hPa 0,0 l/m 2 min 0 min 613 W/m 9,7 km/h (2 Bft) 97,87 %
06.09.2022 16:10 30,4 C 30,0 C 24,4 C 43 % 1014,0 hPa 0,0 l/m 2 min 0 min 609 W/m 6,4 km/h (2 Bft) 95,74 %
06.09.2022 16:12 30,4 C 30,6 C 24,4 C 44 % 1014,0 hPa 0,0 l/m 2 min 0 min 606 W/m 6,4 km/h (2 Bft) 93,62 %
06.09.2022 16:14 30,5 C 30,6 C 24,4 C 43 % 1014,0 hPa 0,0 l/m 2 min 0 min 602 W/m 9,7 km/h (2 Bft) 95,74 %
06.09.2022 16:16 30,6 C 30,6 C 24,4 C 43 % 1014,0 hPa 0,0 l/m 2 min 0 min 594 W/m 6,4 km/h (2 Bft) 95,65 %
06.09.2022 16:18 30,6 C 30,6 C 24,4 C 43 % 1014,0 hPa 0,0 l/m 2 min 0 min 589 W/m 6,4 km/h (2 Bft) 95,74 %
06.09.2022 16:20 30,6 C 30,6 C 24,4 C 43 % 1014,0 hPa 0,0 l/m 2 min 0 min 510 W/m 6,4 km/h (2 Bft) 95,74 %
06.09.2022 16:22 30,6 C 31,7 C 24,4 C 43 % 1014,0 hPa 0,0 l/m 2 min 0 min 582 W/m 12,9 km/h (3 Bft) 95,74 %
06.09.2022 16:24 30,6 C 32,2 C 24,4 C 43 % 1014,1 hPa 0,0 l/m 2 min 0 min 579 W/m 12,9 km/h (3 Bft) 95,74 %
06.09.2022 16:26 30,6 C 31,7 C 24,4 C 43 % 1014,1 hPa 0,0 l/m 2 min 0 min 571 W/m 12,9 km/h (3 Bft) 93,62 %
06.09.2022 16:28 30,6 C 31,7 C 24,4 C 44 % 1014,1 hPa 0,0 l/m 2 min 0 min 558 W/m 9,7 km/h (2 Bft) 93,48 %
06.09.2022 16:30 30,6 C 32,2 C 24,4 C 45 % 1014,0 hPa 0,0 l/m 2 min 0 min 550 W/m 9,7 km/h (2 Bft) 93,62 %
06.09.2022 16:32 30,6 C 32,2 C 24,4 C 44 % 1014,0 hPa 0,0 l/m 2 min 0 min 550 W/m 6,4 km/h (2 Bft) 97,87 %
06.09.2022 16:34 30,5 C 31,7 C 24,4 C 44 % 1014,0 hPa 0,0 l/m 2 min 0 min 546 W/m 12,9 km/h (3 Bft) 95,74 %
06.09.2022 16:36 30,5 C 31,1 C 24,4 C 45 % 1014,0 hPa 0,0 l/m 2 min 0 min 545 W/m 12,9 km/h (3 Bft) 95,74 %
06.09.2022 16:38 30,4 C 31,1 C 24,4 C 44 % 1014,0 hPa 0,0 l/m 2 min 0 min 540 W/m 6,4 km/h (2 Bft) 95,74 %
06.09.2022 16:40 30,4 C 31,1 C 24,4 C 45 % 1014,0 hPa 0,0 l/m 2 min 0 min 536 W/m 6,4 km/h (2 Bft) 95,65 %
06.09.2022 16:42 30,4 C 31,7 C 24,4 C 44 % 1014,0 hPa 0,0 l/m 2 min 0 min 532 W/m 9,7 km/h (2 Bft) 93,62 %
06.09.2022 16:44 30,4 C 31,1 C 24,4 C 44 % 1014,0 hPa 0,0 l/m 2 min 0 min 528 W/m 9,7 km/h (2 Bft) 97,87 %
06.09.2022 16:46 30,4 C 31,7 C 24,4 C 44 % 1014,0 hPa 0,0 l/m 2 min 0 min 525 W/m 9,7 km/h (2 Bft) 97,87 %
06.09.2022 16:48 30,5 C 31,7 C 24,4 C 44 % 1013,9 hPa 0,0 l/m 2 min 0 min 520 W/m 9,7 km/h (2 Bft) 95,74 %
06.09.2022 16:50 30,5 C 31,1 C 24,4 C 44 % 1013,9 hPa 0,0 l/m 2 min 0 min 509 W/m 9,7 km/h (2 Bft) 93,62 %
06.09.2022 16:52 30,6 C 31,1 C 24,4 C 43 % 1013,9 hPa 0,0 l/m 2 min 0 min 505 W/m 6,4 km/h (2 Bft) 95,65 %
06.09.2022 16:54 30,6 C 31,1 C 24,4 C 44 % 1013,9 hPa 0,0 l/m 2 min 0 min 494 W/m 6,4 km/h (2 Bft) 93,62 %
06.09.2022 16:56 30,6 C 31,7 C 24,4 C 44 % 1013,9 hPa 0,0 l/m 2 min 0 min 490 W/m 3,2 km/h (1 Bft) 95,74 %
06.09.2022 16:58 30,6 C 32,8 C 24,4 C 44 % 1013,8 hPa 0,0 l/m 2 min 0 min 486 W/m 3,2 km/h (1 Bft) 95,74 %
06.09.2022 17:00 30,7 C 33,9 C 24,4 C 44 % 1013,8 hPa 0,0 l/m 2 min 0 min 479 W/m 6,4 km/h (2 Bft) 97,87 %
06.09.2022 17:02 30,7 C 33,9 C 24,4 C 46 % 1013,8 hPa 0,0 l/m 2 min 0 min 469 W/m 6,4 km/h (2 Bft) 97,87 %
06.09.2022 17:04 30,8 C 34,4 C 24,4 C 44 % 1013,8 hPa 0,0 l/m 2 min 0 min 465 W/m 3,2 km/h (1 Bft) 97,83 %
06.09.2022 17:06 30,8 C 33,9 C 24,4 C 44 % 1013,8 hPa 0,0 l/m 2 min 0 min 465 W/m 6,4 km/h (2 Bft) 97,87 %
06.09.2022 17:08 30,8 C 33,9 C 24,4 C 43 % 1013,8 hPa 0,0 l/m 2 min 0 min 459 W/m 3,2 km/h (1 Bft) 100,00 %
06.09.2022 17:10 30,7 C 33,9 C 24,4 C 43 % 1013,8 hPa 0,0 l/m 2 min 0 min 456 W/m 6,4 km/h (2 Bft) 97,87 %
06.09.2022 17:12 30,7 C 33,9 C 24,4 C 42 % 1013,7 hPa 0,0 l/m 2 min 0 min 453 W/m 3,2 km/h (1 Bft) 100,00 %
06.09.2022 17:14 30,7 C 33,9 C 24,4 C 42 % 1013,6 hPa 0,0 l/m 2 min 0 min 445 W/m 3,2 km/h (1 Bft) 100,00 %
06.09.2022 17:16 30,6 C 34,4 C 24,4 C 41 % 1013,6 hPa 0,0 l/m 2 min 0 min 438 W/m 3,2 km/h (1 Bft) 100,00 %
06.09.2022 17:18 30,6 C 34,4 C 24,4 C 41 % 1013,6 hPa 0,0 l/m 2 min 0 min 434 W/m 6,4 km/h (2 Bft) 100,00 %
06.09.2022 17:20 30,7 C 34,4 C 25,0 C 44 % 1013,5 hPa 0,0 l/m 2 min 0 min 432 W/m 12,9 km/h (3 Bft) 100,00 %
06.09.2022 17:22 30,7 C 33,9 C 25,0 C 40 % 1013,5 hPa 0,0 l/m 2 min 0 min 424 W/m 12,9 km/h (3 Bft) 100,00 %
06.09.2022 17:24 30,8 C 34,4 C 24,4 C 40 % 1013,4 hPa 0,0 l/m 2 min 0 min 419 W/m 3,2 km/h (1 Bft) 100,00 %
06.09.2022 17:26 30,8 C 34,4 C 24,4 C 43 % 1013,4 hPa 0,0 l/m 2 min 0 min 412 W/m 6,4 km/h (2 Bft) 100,00 %
06.09.2022 17:28 30,8 C 34,4 C 24,4 C 42 % 1013,4 hPa 0,0 l/m 2 min 0 min 404 W/m 12,9 km/h (3 Bft) 100,00 %
06.09.2022 17:30 30,8 C 34,4 C 24,4 C 42 % 1013,4 hPa 0,0 l/m 2 min 0 min 409 W/m 9,7 km/h (2 Bft) 100,00 %
06.09.2022 17:32 30,9 C 34,4 C 25,0 C 43 % 1013,3 hPa 0,0 l/m 2 min 0 min 402 W/m 3,2 km/h (1 Bft) 100,00 %
06.09.2022 17:34 30,9 C 34,4 C 25,0 C 44 % 1013,3 hPa 0,0 l/m 2 min 0 min 397 W/m 6,4 km/h (2 Bft) 100,00 %
06.09.2022 17:36 30,9 C 34,4 C 25,0 C 44 % 1013,3 hPa 0,0 l/m 2 min 0 min 390 W/m 6,4 km/h (2 Bft) 100,00 %
06.09.2022 17:38 30,8 C 34,4 C 25,0 C 45 % 1013,2 hPa 0,0 l/m 2 min 0 min 384 W/m 9,7 km/h (2 Bft) 100,00 %
06.09.2022 17:40 30,7 C 33,9 C 25,0 C 43 % 1013,3 hPa 0,0 l/m 2 min 0 min 376 W/m 6,4 km/h (2 Bft) 100,00 %
06.09.2022 17:42 30,7 C 33,9 C 25,0 C 44 % 1013,3 hPa 0,0 l/m 2 min 0 min 355 W/m 6,4 km/h (2 Bft) 100,00 %
06.09.2022 17:44 30,8 C 34,4 C 25,0 C 44 % 1013,3 hPa 0,0 l/m 2 min 0 min 351 W/m 6,4 km/h (2 Bft) 100,00 %
06.09.2022 17:46 30,8 C 34,4 C 25,0 C 44 % 1013,2 hPa 0,0 l/m 2 min 0 min 331 W/m 6,4 km/h (2 Bft) 97,87 %
06.09.2022 17:48 30,9 C 34,4 C 25,0 C 44 % 1013,3 hPa 0,0 l/m 2 min 0 min 342 W/m 6,4 km/h (2 Bft) 100,00 %
06.09.2022 17:50 30,8 C 34,4 C 25,0 C 43 % 1013,3 hPa 0,0 l/m 2 min 0 min 348 W/m 6,4 km/h (2 Bft) 100,00 %
06.09.2022 17:52 30,7 C 33,9 C 25,0 C 43 % 1013,2 hPa 0,0 l/m 2 min 0 min 341 W/m 9,7 km/h (2 Bft) 97,87 %
06.09.2022 17:54 30,7 C 33,9 C 25,0 C 43 % 1013,2 hPa 0,0 l/m 2 min 0 min 331 W/m 6,4 km/h (2 Bft) 100,00 %
06.09.2022 17:56 30,7 C 34,4 C 25,0 C 42 % 1013,2 hPa 0,0 l/m 2 min 0 min 329 W/m 6,4 km/h (2 Bft) 97,87 %
06.09.2022 17:58 30,7 C 34,4 C 24,4 C 43 % 1013,2 hPa 0,0 l/m 2 min 0 min 321 W/m 3,2 km/h (1 Bft) 97,87 %
06.09.2022 18:00 30,6 C 34,4 C 24,4 C 44 % 1013,2 hPa 0,0 l/m 2 min 0 min 312 W/m 6,4 km/h (2 Bft) 100,00 %
06.09.2022 18:02 30,6 C 34,4 C 24,4 C 42 % 1013,1 hPa 0,0 l/m 2 min 0 min 306 W/m 6,4 km/h (2 Bft) 97,83 %
06.09.2022 18:04 30,7 C 35,0 C 24,4 C 43 % 1013,2 hPa 0,0 l/m 2 min 0 min 299 W/m 3,2 km/h (1 Bft) 100,00 %
06.09.2022 18:08 30,8 C 35,0 C 24,4 C 43 % 1013,2 hPa 0,0 l/m 4 min 0 min 285 W/m 3,2 km/h (1 Bft) 98,96 %
06.09.2022 18:10 30,9 C 35,0 C 24,4 C 45 % 1013,2 hPa 0,0 l/m 2 min 0 min 273 W/m 6,4 km/h (2 Bft) 97,87 %
06.09.2022 18:12 30,9 C 35,0 C 24,4 C 43 % 1013,2 hPa 0,0 l/m 2 min 0 min 269 W/m 3,2 km/h (1 Bft) 100,00 %
06.09.2022 18:14 31,0 C 34,4 C 23,9 C 47 % 1013,2 hPa 0,0 l/m 2 min 0 min 262 W/m 3,2 km/h (1 Bft) 97,83 %
06.09.2022 18:16 31,0 C 34,4 C 23,9 C 46 % 1013,2 hPa 0,0 l/m 2 min 0 min 256 W/m 3,2 km/h (1 Bft) 95,74 %
06.09.2022 18:18 31,1 C 33,9 C 23,3 C 48 % 1013,1 hPa 0,0 l/m 2 min 0 min 250 W/m 3,2 km/h (1 Bft) 97,87 %
06.09.2022 18:20 31,1 C 33,9 C 23,9 C 43 % 1013,1 hPa 0,0 l/m 2 min 0 min 243 W/m 6,4 km/h (2 Bft) 97,87 %
06.09.2022 18:22 31,1 C 33,9 C 23,9 C 42 % 1013,1 hPa 0,0 l/m 2 min 0 min 226 W/m 6,4 km/h (2 Bft) 97,87 %
06.09.2022 18:24 31,1 C 33,9 C 23,3 C 42 % 1013,1 hPa 0,0 l/m 2 min 0 min 221 W/m 3,2 km/h (1 Bft) 97,87 %
06.09.2022 18:26 30,9 C 34,4 C 23,3 C 44 % 1013,1 hPa 0,0 l/m 2 min 0 min 220 W/m 3,2 km/h (1 Bft) 97,83 %
06.09.2022 18:28 30,9 C 34,4 C 23,3 C 42 % 1013,1 hPa 0,0 l/m 2 min 0 min 211 W/m 3,2 km/h (1 Bft) 97,87 %
06.09.2022 18:30 30,9 C 34,4 C 23,3 C 43 % 1013,1 hPa 0,0 l/m 2 min 0 min 206 W/m 3,2 km/h (1 Bft) 97,87 %
06.09.2022 18:32 30,9 C 34,4 C 23,3 C 44 % 1013,0 hPa 0,0 l/m 2 min 0 min 200 W/m 0,0 km/h (0 Bft) 97,87 %
06.09.2022 18:34 30,9 C 34,4 C 23,3 C 44 % 1013,1 hPa 0,0 l/m 2 min 0 min 178 W/m 3,2 km/h (1 Bft) 97,87 %
06.09.2022 18:36 30,9 C 34,4 C 23,3 C 46 % 1013,1 hPa 0,0 l/m 2 min 0 min 181 W/m 3,2 km/h (1 Bft) 97,87 %
06.09.2022 18:38 30,9 C 34,4 C 23,3 C 43 % 1013,1 hPa 0,0 l/m 2 min 0 min 173 W/m 0,0 km/h (0 Bft) 97,83 %
06.09.2022 18:40 30,9 C 34,4 C 23,3 C 46 % 1013,0 hPa 0,0 l/m 2 min 0 min 170 W/m 3,2 km/h (1 Bft) 97,87 %
06.09.2022 18:42 31,0 C 34,4 C 23,3 C 45 % 1013,0 hPa 0,0 l/m 2 min 0 min 165 W/m 6,4 km/h (2 Bft) 100,00 %
06.09.2022 18:44 31,1 C 33,9 C 23,3 C 44 % 1013,1 hPa 0,0 l/m 2 min 0 min 157 W/m 3,2 km/h (1 Bft) 100,00 %
06.09.2022 18:46 30,9 C 33,9 C 23,3 C 42 % 1013,1 hPa 0,0 l/m 2 min 0 min 147 W/m 3,2 km/h (1 Bft) 95,74 %
06.09.2022 18:48 30,9 C 32,8 C 23,3 C 44 % 1013,0 hPa 0,0 l/m 2 min 0 min 139 W/m 3,2 km/h (1 Bft) 97,87 %
06.09.2022 18:50 30,9 C 31,1 C 23,3 C 45 % 1013,0 hPa 0,0 l/m 0 min 0 min 78 W/m 6,4 km/h (2 Bft) 97,83 %
06.09.2022 18:52 30,9 C 30,0 C 22,8 C 44 % 1013,0 hPa 0,0 l/m 0 min 0 min 44 W/m 3,2 km/h (1 Bft) 97,87 %
06.09.2022 18:54 30,7 C 29,4 C 22,8 C 44 % 1013,0 hPa 0,0 l/m 0 min 0 min 42 W/m 3,2 km/h (1 Bft) 97,87 %
06.09.2022 18:56 30,6 C 28,9 C 22,8 C 45 % 1013,0 hPa 0,0 l/m 0 min 0 min 42 W/m 0,0 km/h (0 Bft) 97,87 %
06.09.2022 18:58 30,6 C 28,3 C 22,8 C 45 % 1013,0 hPa 0,0 l/m 0 min 0 min 41 W/m 3,2 km/h (1 Bft) 95,74 %
06.09.2022 19:00 30,4 C 28,3 C 22,8 C 43 % 1013,0 hPa 0,0 l/m 0 min 0 min 39 W/m 6,4 km/h (2 Bft) 97,87 %
06.09.2022 19:02 30,2 C 27,8 C 22,2 C 43 % 1013,0 hPa 0,0 l/m 0 min 0 min 34 W/m 3,2 km/h (1 Bft) 95,65 %
06.09.2022 19:04 30,1 C 27,8 C 22,2 C 44 % 1013,0 hPa 0,0 l/m 0 min 0 min 40 W/m 0,0 km/h (0 Bft) 95,74 %
06.09.2022 19:06 30,0 C 27,8 C 22,2 C 45 % 1012,9 hPa 0,0 l/m 0 min 0 min 40 W/m 0,0 km/h (0 Bft) 97,87 %
06.09.2022 19:08 29,9 C 27,2 C 21,7 C 45 % 1013,0 hPa 0,0 l/m 0 min 0 min 40 W/m 0,0 km/h (0 Bft) 95,74 %
06.09.2022 19:10 29,9 C 27,2 C 21,7 C 46 % 1013,0 hPa 0,0 l/m 0 min 0 min 42 W/m 3,2 km/h (1 Bft) 97,87 %
06.09.2022 19:12 29,8 C 27,2 C 21,7 C 46 % 1013,0 hPa 0,0 l/m 0 min 0 min 46 W/m 3,2 km/h (1 Bft) 97,83 %
06.09.2022 19:14 29,7 C 27,2 C 21,7 C 47 % 1012,9 hPa 0,0 l/m 0 min 0 min 50 W/m 6,4 km/h (2 Bft) 97,87 %
06.09.2022 19:16 29,6 C 27,2 C 21,7 C 46 % 1012,9 hPa 0,0 l/m 0 min 0 min 54 W/m 3,2 km/h (1 Bft) 95,74 %
06.09.2022 19:18 29,5 C 26,7 C 21,7 C 46 % 1012,9 hPa 0,0 l/m 0 min 0 min 55 W/m 3,2 km/h (1 Bft) 97,22 %
06.09.2022 19:20 29,4 C 26,7 C 21,7 C 45 % 1012,9 hPa 0,0 l/m 0 min 0 min 53 W/m 3,2 km/h (1 Bft) 97,87 %
06.09.2022 19:22 29,4 C 26,7 C 21,7 C 47 % 1012,8 hPa 0,0 l/m 0 min 0 min 53 W/m 3,2 km/h (1 Bft) 97,87 %
06.09.2022 19:24 29,3 C 26,7 C 21,7 C 48 % 1012,8 hPa 0,0 l/m 2 min 0 min 53 W/m 0,0 km/h (0 Bft) 97,83 %
06.09.2022 19:26 29,2 C 26,7 C 21,7 C 47 % 1012,8 hPa 0,0 l/m 0 min 0 min 50 W/m 3,2 km/h (1 Bft) 95,74 %
06.09.2022 19:28 29,2 C 26,7 C 21,7 C 47 % 1012,8 hPa 0,0 l/m 0 min 0 min 47 W/m 3,2 km/h (1 Bft) 100,00 %
06.09.2022 19:30 29,1 C 26,7 C 21,7 C 46 % 1012,8 hPa 0,0 l/m 0 min 0 min 44 W/m 9,7 km/h (2 Bft) 95,74 %
06.09.2022 19:32 28,9 C 26,7 C 21,7 C 47 % 1012,8 hPa 0,0 l/m 0 min 0 min 40 W/m 3,2 km/h (1 Bft) 93,62 %
06.09.2022 19:34 28,9 C 26,7 C 21,7 C 46 % 1012,8 hPa 0,0 l/m 0 min 0 min 33 W/m 0,0 km/h (0 Bft) 97,87 %
06.09.2022 19:36 28,8 C 26,1 C 21,1 C 50 % 1012,8 hPa 0,0 l/m 0 min 0 min 28 W/m 0,0 km/h (0 Bft) 96,55 %
06.09.2022 19:38 28,8 C 26,1 C 21,1 C 50 % 1012,8 hPa 0,0 l/m 0 min 0 min 25 W/m 0,0 km/h (0 Bft) 97,14 %
06.09.2022 19:40 28,7 C 26,1 C 21,1 C 49 % 1012,8 hPa 0,0 l/m 0 min 0 min 25 W/m 3,2 km/h (1 Bft) 97,87 %
06.09.2022 19:42 28,5 C 26,1 C 21,1 C 49 % 1012,8 hPa 0,0 l/m 0 min 0 min 22 W/m 0,0 km/h (0 Bft) 95,74 %
06.09.2022 19:44 28,4 C 25,6 C 21,1 C 50 % 1012,8 hPa 0,0 l/m 0 min 0 min 21 W/m 0,0 km/h (0 Bft) 97,87 %
06.09.2022 19:46 28,3 C 25,6 C 20,6 C 51 % 1012,8 hPa 0,0 l/m 0 min 0 min 19 W/m 0,0 km/h (0 Bft) 95,65 %
06.09.2022 19:48 28,2 C 25,0 C 20,6 C 53 % 1012,8 hPa 0,0 l/m 0 min 0 min 19 W/m 0,0 km/h (0 Bft) 95,74 %
06.09.2022 19:50 28,1 C 25,0 C 20,6 C 52 % 1012,8 hPa 0,0 l/m 0 min 0 min 18 W/m 0,0 km/h (0 Bft) 95,74 %
06.09.2022 19:52 28,0 C 25,0 C 20,6 C 51 % 1012,8 hPa 0,0 l/m 0 min 0 min 17 W/m 0,0 km/h (0 Bft) 97,87 %
06.09.2022 19:54 27,9 C 25,0 C 20,0 C 50 % 1012,8 hPa 0,0 l/m 0 min 0 min 14 W/m 0,0 km/h (0 Bft) 97,87 %
06.09.2022 19:56 27,8 C 25,0 C 20,0 C 52 % 1012,8 hPa 0,0 l/m 0 min 0 min 11 W/m 0,0 km/h (0 Bft) 97,87 %
06.09.2022 19:58 27,7 C 25,0 C 20,0 C 52 % 1012,8 hPa 0,0 l/m 0 min 0 min 10 W/m 0,0 km/h (0 Bft) 95,74 %
06.09.2022 20:00 27,6 C 24,4 C 20,0 C 52 % 1012,9 hPa 0,0 l/m 0 min 0 min 9 W/m 0,0 km/h (0 Bft) 95,65 %
06.09.2022 20:02 27,5 C 24,4 C 20,0 C 52 % 1012,9 hPa 0,0 l/m 0 min 0 min 8 W/m 0,0 km/h (0 Bft) 93,62 %
06.09.2022 20:04 27,4 C 24,4 C 20,0 C 53 % 1012,9 hPa 0,0 l/m 0 min 0 min 7 W/m 0,0 km/h (0 Bft) 95,74 %
06.09.2022 20:06 27,3 C 24,4 C 19,4 C 54 % 1012,8 hPa 0,0 l/m 0 min 0 min 7 W/m 0,0 km/h (0 Bft) 95,74 %
06.09.2022 20:08 27,2 C 24,4 C 19,4 C 56 % 1012,9 hPa 0,0 l/m 0 min 0 min 6 W/m 0,0 km/h (0 Bft) 93,62 %
06.09.2022 20:10 27,2 C 24,4 C 19,4 C 57 % 1012,8 hPa 0,0 l/m 0 min 0 min 4 W/m 0,0 km/h (0 Bft) 95,74 %
06.09.2022 20:12 27,1 C 23,9 C 19,4 C 56 % 1012,8 hPa 0,0 l/m 0 min 0 min 0 W/m 0,0 km/h (0 Bft) 95,65 %
06.09.2022 20:14 26,9 C 23,9 C 19,4 C 56 % 1012,8 hPa 0,0 l/m 0 min 0 min 0 W/m 0,0 km/h (0 Bft) 95,74 %
06.09.2022 20:16 26,9 C 23,9 C 19,4 C 54 % 1012,8 hPa 0,0 l/m 0 min 0 min 0 W/m 0,0 km/h (0 Bft) 95,74 %
06.09.2022 20:18 26,8 C 23,9 C 19,4 C 54 % 1012,8 hPa 0,0 l/m 0 min 0 min 0 W/m 0,0 km/h (0 Bft) 93,62 %
06.09.2022 20:20 26,7 C 23,9 C 18,9 C 55 % 1012,7 hPa 0,0 l/m 0 min 0 min 0 W/m 0,0 km/h (0 Bft) 95,74 %
06.09.2022 20:22 26,6 C 23,9 C 18,9 C 55 % 1012,7 hPa 0,0 l/m 0 min 0 min 0 W/m 0,0 km/h (0 Bft) 93,62 %
06.09.2022 20:24 26,6 C 23,9 C 18,9 C 55 % 1012,7 hPa 0,0 l/m 0 min 0 min 0 W/m 0,0 km/h (0 Bft) 95,65 %
06.09.2022 20:26 26,4 C 23,9 C 18,9 C 54 % 1012,7 hPa 0,0 l/m 0 min 0 min 0 W/m 0,0 km/h (0 Bft) 95,74 %
06.09.2022 20:28 26,4 C 23,3 C 18,9 C 57 % 1012,7 hPa 0,0 l/m 0 min 0 min 0 W/m 0,0 km/h (0 Bft) 95,74 %
06.09.2022 20:30 26,3 C 23,3 C 18,9 C 57 % 1012,8 hPa 0,0 l/m 0 min 0 min 0 W/m 0,0 km/h (0 Bft) 95,74 %
06.09.2022 20:32 26,2 C 23,3 C 18,9 C 56 % 1012,7 hPa 0,0 l/m 0 min 0 min 0 W/m 0,0 km/h (0 Bft) 97,87 %
06.09.2022 20:34 26,1 C 23,3 C 18,9 C 56 % 1012,8 hPa 0,0 l/m 0 min 0 min 0 W/m 0,0 km/h (0 Bft) 97,83 %
06.09.2022 20:36 26,1 C 23,3 C 18,9 C 55 % 1012,8 hPa 0,0 l/m 0 min 0 min 0 W/m 0,0 km/h (0 Bft) 97,87 %
06.09.2022 20:38 26,0 C 23,3 C 18,3 C 56 % 1012,8 hPa 0,0 l/m 0 min 0 min 0 W/m 0,0 km/h (0 Bft) 97,87 %
06.09.2022 20:40 25,9 C 23,3 C 18,3 C 59 % 1012,7 hPa 0,0 l/m 0 min 0 min 0 W/m 0,0 km/h (0 Bft) 100,00 %
06.09.2022 20:42 25,8 C 22,8 C 18,3 C 60 % 1012,7 hPa 0,0 l/m 0 min 0 min 0 W/m 0,0 km/h (0 Bft) 100,00 %
06.09.2022 20:44 25,8 C 22,8 C 18,3 C 58 % 1012,7 hPa 0,0 l/m 0 min 0 min 0 W/m 0,0 km/h (0 Bft) 100,00 %
06.09.2022 20:46 25,6 C 22,8 C 18,3 C 55 % 1012,8 hPa 0,0 l/m 0 min 0 min 0 W/m 0,0 km/h (0 Bft) 100,00 %
06.09.2022 20:48 25,5 C 22,8 C 18,3 C 56 % 1012,8 hPa 0,0 l/m 0 min 0 min 0 W/m 0,0 km/h (0 Bft) 100,00 %
06.09.2022 20:50 25,4 C 22,8 C 18,3 C 58 % 1012,8 hPa 0,0 l/m 0 min 0 min 0 W/m 0,0 km/h (0 Bft) 97,87 %
06.09.2022 20:52 25,3 C 22,8 C 18,3 C 57 % 1012,8 hPa 0,0 l/m 0 min 0 min 0 W/m 0,0 km/h (0 Bft) 100,00 %
06.09.2022 20:54 25,2 C 22,8 C 17,8 C 59 % 1012,8 hPa 0,0 l/m 0 min 0 min 0 W/m 0,0 km/h (0 Bft) 97,87 %
06.09.2022 20:56 25,2 C 22,8 C 17,8 C 60 % 1012,8 hPa 0,0 l/m 0 min 0 min 0 W/m 0,0 km/h (0 Bft) 100,00 %
06.09.2022 20:58 25,1 C 22,8 C 17,8 C 59 % 1012,7 hPa 0,0 l/m 0 min 0 min 0 W/m 0,0 km/h (0 Bft) 100,00 %
06.09.2022 21:00 25,0 C 22,8 C 17,8 C 58 % 1012,7 hPa 0,0 l/m 0 min 0 min 0 W/m 0,0 km/h (0 Bft) 100,00 %
06.09.2022 21:02 24,9 C 22,8 C 17,8 C 59 % 1012,6 hPa 0,0 l/m 0 min 0 min 0 W/m 0,0 km/h (0 Bft) 100,00 %
06.09.2022 21:04 24,8 C 22,2 C 17,8 C 60 % 1012,7 hPa 0,0 l/m 0 min 0 min 0 W/m 0,0 km/h (0 Bft) 100,00 %
06.09.2022 21:06 24,7 C 22,2 C 17,8 C 59 % 1012,7 hPa 0,0 l/m 0 min 0 min 0 W/m 0,0 km/h (0 Bft) 100,00 %
06.09.2022 21:08 24,6 C 22,8 C 17,8 C 58 % 1012,6 hPa 0,0 l/m 0 min 0 min 0 W/m 0,0 km/h (0 Bft) 97,87 %
06.09.2022 21:10 24,6 C 22,8 C 17,8 C 59 % 1012,6 hPa 0,0 l/m 0 min 0 min 0 W/m 0,0 km/h (0 Bft) 100,00 %
06.09.2022 21:12 24,6 C 22,8 C 17,8 C 59 % 1012,6 hPa 0,0 l/m 0 min 0 min 0 W/m 0,0 km/h (0 Bft) 100,00 %
06.09.2022 21:14 24,5 C 22,8 C 17,8 C 59 % 1012,5 hPa 0,0 l/m 0 min 0 min 0 W/m 0,0 km/h (0 Bft) 100,00 %
06.09.2022 21:16 24,4 C 22,8 C 17,8 C 59 % 1012,5 hPa 0,0 l/m 0 min 0 min 0 W/m 0,0 km/h (0 Bft) 100,00 %
06.09.2022 21:18 24,4 C 22,8 C 17,8 C 60 % 1012,5 hPa 0,0 l/m 0 min 0 min 0 W/m 0,0 km/h (0 Bft) 97,87 %
06.09.2022 21:20 24,3 C 22,8 C 17,8 C 60 % 1012,5 hPa 0,0 l/m 0 min 0 min 0 W/m 0,0 km/h (0 Bft) 97,87 %
06.09.2022 21:22 24,3 C 22,8 C 17,8 C 59 % 1012,5 hPa 0,0 l/m 0 min 0 min 0 W/m 0,0 km/h (0 Bft) 97,83 %
06.09.2022 21:24 24,3 C 22,8 C 17,8 C 60 % 1012,5 hPa 0,0 l/m 0 min 0 min 0 W/m 0,0 km/h (0 Bft) 97,87 %
06.09.2022 21:26 24,3 C 22,2 C 17,8 C 61 % 1012,5 hPa 0,0 l/m 0 min 0 min 0 W/m 0,0 km/h (0 Bft) 93,62 %
06.09.2022 21:28 24,2 C 22,2 C 17,8 C 60 % 1012,5 hPa 0,0 l/m 0 min 0 min 0 W/m 0,0 km/h (0 Bft) 93,62 %
06.09.2022 21:30 24,2 C 22,2 C 17,8 C 60 % 1012,5 hPa 0,0 l/m 0 min 0 min 0 W/m 0,0 km/h (0 Bft) 97,87 %
06.09.2022 21:32 24,2 C 22,2 C 17,8 C 61 % 1012,5 hPa 0,0 l/m 0 min 0 min 0 W/m 0,0 km/h (0 Bft) 97,87 %
06.09.2022 21:34 24,1 C 22,2 C 17,8 C 61 % 1012,5 hPa 0,0 l/m 0 min 0 min 0 W/m 0,0 km/h (0 Bft) 97,83 %
06.09.2022 21:36 24,1 C 22,2 C 17,8 C 60 % 1012,4 hPa 0,0 l/m 0 min 0 min 0 W/m 0,0 km/h (0 Bft) 97,87 %
06.09.2022 21:38 24,1 C 22,2 C 17,8 C 61 % 1012,4 hPa 0,0 l/m 0 min 0 min 0 W/m 0,0 km/h (0 Bft) 95,74 %
06.09.2022 21:40 24,1 C 22,2 C 17,8 C 61 % 1012,4 hPa 0,0 l/m 0 min 0 min 0 W/m 0,0 km/h (0 Bft) 97,87 %
06.09.2022 21:42 24,0 C 22,2 C 17,8 C 61 % 1012,4 hPa 0,0 l/m 0 min 0 min 0 W/m 0,0 km/h (0 Bft) 97,87 %
06.09.2022 21:44 23,9 C 22,2 C 17,8 C 62 % 1012,3 hPa 0,0 l/m 0 min 0 min 0 W/m 0,0 km/h (0 Bft) 95,74 %
06.09.2022 21:46 23,9 C 22,2 C 17,2 C 61 % 1012,2 hPa 0,0 l/m 0 min 0 min 0 W/m 0,0 km/h (0 Bft) 97,83 %
06.09.2022 21:48 23,9 C 22,2 C 17,2 C 61 % 1012,2 hPa 0,0 l/m 0 min 0 min 0 W/m 3,2 km/h (1 Bft) 98,15 %
06.09.2022 21:50 23,8 C 22,2 C 17,8 C 59 % 1012,3 hPa 0,0 l/m 0 min 0 min 0 W/m 0,0 km/h (0 Bft) 95,65 %
06.09.2022 21:52 23,8 C 22,2 C 17,2 C 60 % 1012,2 hPa 0,0 l/m 0 min 0 min 0 W/m 0,0 km/h (0 Bft) 95,74 %
06.09.2022 21:54 23,8 C 22,2 C 17,2 C 61 % 1012,2 hPa 0,0 l/m 0 min 0 min 0 W/m 0,0 km/h (0 Bft) 97,87 %
06.09.2022 21:56 23,8 C 22,2 C 17,2 C 60 % 1012,2 hPa 0,0 l/m 0 min 0 min 0 W/m 0,0 km/h (0 Bft) 97,87 %
06.09.2022 21:58 23,7 C 22,2 C 17,2 C 61 % 1012,3 hPa 0,0 l/m 0 min 0 min 0 W/m 0,0 km/h (0 Bft) 93,62 %
06.09.2022 22:00 23,7 C 22,2 C 17,2 C 62 % 1012,2 hPa 0,0 l/m 0 min 0 min 0 W/m 0,0 km/h (0 Bft) 93,62 %
06.09.2022 22:02 23,7 C 21,7 C 17,2 C 63 % 1012,2 hPa 0,0 l/m 0 min 0 min 0 W/m 0,0 km/h (0 Bft) 95,65 %
06.09.2022 22:04 23,7 C 21,7 C 17,2 C 64 % 1012,2 hPa 0,0 l/m 0 min 0 min 0 W/m 0,0 km/h (0 Bft) 95,24 %
06.09.2022 22:06 23,6 C 21,7 C 17,2 C 63 % 1012,2 hPa 0,0 l/m 0 min 0 min 0 W/m 0,0 km/h (0 Bft) 95,74 %
06.09.2022 22:08 23,6 C 21,7 C 17,2 C 63 % 1012,2 hPa 0,0 l/m 0 min 0 min 0 W/m 0,0 km/h (0 Bft) 97,87 %
06.09.2022 22:10 23,6 C 21,7 C 17,2 C 63 % 1012,1 hPa 0,0 l/m 0 min 0 min 0 W/m 0,0 km/h (0 Bft) 93,48 %
06.09.2022 22:12 23,5 C 21,7 C 17,2 C 63 % 1012,1 hPa 0,0 l/m 0 min 0 min 0 W/m 0,0 km/h (0 Bft) 97,87 %
06.09.2022 22:14 23,4 C 21,7 C 17,2 C 62 % 1012,0 hPa 0,0 l/m 0 min 0 min 0 W/m 0,0 km/h (0 Bft) 95,74 %
06.09.2022 22:16 23,4 C 21,7 C 17,2 C 62 % 1012,1 hPa 0,0 l/m 0 min 0 min 0 W/m 0,0 km/h (0 Bft) 97,87 %
06.09.2022 22:18 23,3 C 21,7 C 17,2 C 63 % 1012,1 hPa 0,0 l/m 0 min 0 min 0 W/m 0,0 km/h (0 Bft) 96,00 %
06.09.2022 22:20 23,3 C 21,1 C 17,2 C 64 % 1012,1 hPa 0,0 l/m 0 min 0 min 0 W/m 3,2 km/h (1 Bft) 97,87 %
06.09.2022 22:22 23,2 C 21,7 C 17,2 C 65 % 1012,1 hPa 0,0 l/m 0 min 0 min 0 W/m 3,2 km/h (1 Bft) 93,48 %
06.09.2022 22:24 23,2 C 21,7 C 17,2 C 64 % 1012,1 hPa 0,0 l/m 0 min 0 min 0 W/m 3,2 km/h (1 Bft) 97,87 %
06.09.2022 22:26 23,1 C 21,7 C 17,2 C 64 % 1012,1 hPa 0,0 l/m 0 min 0 min 0 W/m 3,2 km/h (1 Bft) 97,87 %
06.09.2022 22:28 23,1 C 21,7 C 17,2 C 64 % 1012,1 hPa 0,0 l/m 0 min 0 min 0 W/m 0,0 km/h (0 Bft) 97,87 %
06.09.2022 22:30 23,1 C 21,7 C 17,2 C 64 % 1012,1 hPa 0,0 l/m 0 min 0 min 0 W/m 0,0 km/h (0 Bft) 95,74 %
06.09.2022 22:32 23,1 C 22,2 C 17,8 C 63 % 1012,2 hPa 0,0 l/m 0 min 0 min 0 W/m 0,0 km/h (0 Bft) 95,74 %
06.09.2022 22:34 23,0 C 22,2 C 17,8 C 63 % 1012,2 hPa 0,0 l/m 0 min 0 min 0 W/m 0,0 km/h (0 Bft) 97,83 %
06.09.2022 22:36 23,0 C 22,2 C 17,8 C 64 % 1012,2 hPa 0,0 l/m 0 min 0 min 0 W/m 0,0 km/h (0 Bft) 97,87 %
06.09.2022 22:38 22,9 C 21,7 C 17,8 C 64 % 1012,2 hPa 0,0 l/m 0 min 0 min 0 W/m 0,0 km/h (0 Bft) 97,87 %
06.09.2022 22:40 23,0 C 21,7 C 17,8 C 65 % 1012,2 hPa 0,0 l/m 0 min 0 min 0 W/m 0,0 km/h (0 Bft) 97,87 %
06.09.2022 22:42 23,0 C 21,7 C 17,8 C 66 % 1012,2 hPa 0,0 l/m 0 min 0 min 0 W/m 0,0 km/h (0 Bft) 97,87 %
06.09.2022 22:44 23,0 C 21,7 C 17,8 C 67 % 1012,2 hPa 0,0 l/m 0 min 0 min 0 W/m 0,0 km/h (0 Bft) 97,87 %
06.09.2022 22:46 22,9 C 21,7 C 17,8 C 65 % 1012,2 hPa 0,0 l/m 0 min 0 min 0 W/m 0,0 km/h (0 Bft) 95,65 %
06.09.2022 22:48 22,9 C 21,7 C 17,8 C 65 % 1012,2 hPa 0,0 l/m 0 min 0 min 0 W/m 0,0 km/h (0 Bft) 97,87 %
06.09.2022 22:50 22,9 C 21,7 C 17,8 C 66 % 1012,2 hPa 0,0 l/m 0 min 0 min 0 W/m 0,0 km/h (0 Bft) 97,87 %
06.09.2022 22:52 22,9 C 21,7 C 17,8 C 66 % 1012,1 hPa 0,0 l/m 0 min 0 min 0 W/m 0,0 km/h (0 Bft) 97,87 %
06.09.2022 22:54 22,9 C 21,7 C 17,8 C 67 % 1012,1 hPa 0,0 l/m 0 min 0 min 0 W/m 0,0 km/h (0 Bft) 97,87 %
06.09.2022 22:56 22,9 C 21,7 C 17,8 C 66 % 1012,1 hPa 0,0 l/m 0 min 0 min 0 W/m 0,0 km/h (0 Bft) 97,87 %
06.09.2022 22:58 22,8 C 21,7 C 17,8 C 67 % 1012,2 hPa 0,0 l/m 0 min 0 min 0 W/m 3,2 km/h (1 Bft) 97,83 %
06.09.2022 23:00 22,8 C 21,7 C 17,8 C 66 % 1012,1 hPa 0,0 l/m 0 min 0 min 0 W/m 6,4 km/h (2 Bft) 97,87 %
06.09.2022 23:02 22,8 C 22,2 C 18,3 C 65 % 1012,2 hPa 0,0 l/m 0 min 0 min 0 W/m 6,4 km/h (2 Bft) 95,74 %
06.09.2022 23:04 22,9 C 22,8 C 18,3 C 64 % 1012,2 hPa 0,0 l/m 0 min 0 min 0 W/m 9,7 km/h (2 Bft) 95,83 %
06.09.2022 23:06 23,0 C 22,8 C 18,9 C 63 % 1012,2 hPa 0,0 l/m 0 min 0 min 0 W/m 19,3 km/h (3 Bft) 97,87 %
06.09.2022 23:08 23,1 C 23,3 C 19,4 C 63 % 1012,2 hPa 0,0 l/m 0 min 0 min 0 W/m 19,3 km/h (3 Bft) 97,83 %
06.09.2022 23:10 23,3 C 23,3 C 19,4 C 63 % 1012,3 hPa 0,0 l/m 0 min 0 min 0 W/m 19,3 km/h (3 Bft) 97,87 %
06.09.2022 23:12 23,5 C 23,3 C 19,4 C 62 % 1012,3 hPa 0,0 l/m 0 min 0 min 0 W/m 6,4 km/h (2 Bft) 97,87 %
06.09.2022 23:14 23,6 C 23,3 C 19,4 C 62 % 1012,4 hPa 0,0 l/m 0 min 0 min 0 W/m 12,9 km/h (3 Bft) 97,87 %
06.09.2022 23:16 23,7 C 23,3 C 19,4 C 62 % 1012,3 hPa 0,0 l/m 0 min 0 min 0 W/m 12,9 km/h (3 Bft) 97,87 %
06.09.2022 23:18 23,9 C 23,3 C 20,0 C 61 % 1012,3 hPa 0,0 l/m 0 min 0 min 0 W/m 16,1 km/h (3 Bft) 97,87 %
06.09.2022 23:20 24,1 C 23,3 C 20,0 C 61 % 1012,3 hPa 0,0 l/m 0 min 0 min 0 W/m 16,1 km/h (3 Bft) 97,83 %
06.09.2022 23:22 24,2 C 23,3 C 20,0 C 61 % 1012,3 hPa 0,0 l/m 0 min 0 min 0 W/m 16,1 km/h (3 Bft) 100,00 %
06.09.2022 23:24 24,2 C 23,3 C 20,0 C 61 % 1012,3 hPa 0,0 l/m 0 min 0 min 0 W/m 19,3 km/h (3 Bft) 95,74 %
06.09.2022 23:26 24,2 C 23,3 C 19,4 C 61 % 1012,3 hPa 0,0 l/m 0 min 0 min 0 W/m 6,4 km/h (2 Bft) 100,00 %
06.09.2022 23:28 24,3 C 23,3 C 19,4 C 61 % 1012,2 hPa 0,0 l/m 0 min 0 min 0 W/m 16,1 km/h (3 Bft) 100,00 %
06.09.2022 23:30 24,3 C 23,3 C 19,4 C 61 % 1012,2 hPa 0,0 l/m 0 min 0 min 0 W/m 16,1 km/h (3 Bft) 100,00 %
06.09.2022 23:32 24,3 C 23,3 C 19,4 C 61 % 1012,2 hPa 0,0 l/m 0 min 0 min 0 W/m 12,9 km/h (3 Bft) 100,00 %
06.09.2022 23:34 24,3 C 23,3 C 19,4 C 61 % 1012,2 hPa 0,0 l/m 0 min 0 min 0 W/m 16,1 km/h (3 Bft) 100,00 %
06.09.2022 23:36 24,2 C 23,3 C 19,4 C 61 % 1012,2 hPa 0,0 l/m 0 min 0 min 0 W/m 12,9 km/h (3 Bft) 100,00 %
06.09.2022 23:38 24,2 C 23,3 C 19,4 C 61 % 1012,3 hPa 0,0 l/m 0 min 0 min 0 W/m 12,9 km/h (3 Bft) 100,00 %
06.09.2022 23:40 24,2 C 23,3 C 19,4 C 61 % 1012,2 hPa 0,0 l/m 0 min 0 min 0 W/m 12,9 km/h (3 Bft) 100,00 %
06.09.2022 23:42 24,2 C 23,3 C 19,4 C 61 % 1012,2 hPa 0,0 l/m 0 min 0 min 0 W/m 12,9 km/h (3 Bft) 97,87 %
06.09.2022 23:44 24,2 C 23,3 C 19,4 C 61 % 1012,2 hPa 0,0 l/m 0 min 0 min 0 W/m 12,9 km/h (3 Bft) 100,00 %
06.09.2022 23:46 24,1 C 22,8 C 19,4 C 62 % 1012,2 hPa 0,0 l/m 0 min 0 min 0 W/m 6,4 km/h (2 Bft) 97,83 %
06.09.2022 23:48 24,1 C 22,8 C 19,4 C 62 % 1012,1 hPa 0,0 l/m 0 min 0 min 0 W/m 12,9 km/h (3 Bft) 100,00 %
06.09.2022 23:50 24,1 C 22,8 C 19,4 C 62 % 1012,1 hPa 0,0 l/m 0 min 0 min 0 W/m 12,9 km/h (3 Bft) 100,00 %
06.09.2022 23:52 24,1 C 22,8 C 19,4 C 62 % 1012,0 hPa 0,0 l/m 0 min 0 min 0 W/m 12,9 km/h (3 Bft) 100,00 %
06.09.2022 23:54 24,0 C 22,8 C 19,4 C 62 % 1012,0 hPa 0,0 l/m 0 min 0 min 0 W/m 6,4 km/h (2 Bft) 97,87 %
06.09.2022 23:56 24,0 C 22,8 C 18,9 C 62 % 1012,0 hPa 0,0 l/m 0 min 0 min 0 W/m 3,2 km/h (1 Bft) 97,87 %
06.09.2022 23:58 23,9 C 22,8 C 18,9 C 62 % 1011,9 hPa 0,0 l/m 0 min 0 min 0 W/m 6,4 km/h (2 Bft) 97,87 %
_ Min-Zeit 07:40 06:40 03:38 17:22 23:58 - - - - 00:00 06:10
Minimum _ 17,4 C 16,7 C 13,3 C 40 % 1011,9 hPa - - - - 0,0 km/h (0 Bft) 70,21 %
_ Max-Zeit 18:18 14:10 12:14 08:20 02:30 03:26 18:08 02:34 14:14 14:40 00:12
Maximum _ 31,1 C 37,2 C 27,2 C 94 % 1017,3 hPa 0,2 l/m 4 min 2 min 805 W/m 25,7 km/h
S (4 Bft)
100,00 %
Durchschnitt _ 24,0 C 24,0 C 18,7 C 67 % 1014,8 hPa #0,4 l/m #6:24 h #52 min. 305 W/m 6,3 km/h (2 Bft) 97,55 %
© 2022 W. Hausmann